Observation data for Dozier on 03/11/2018      Previous  Date  Next       Current Mesonet Observations  Soil Data  Daily Summary Page  Observations in Plain Language
KDO1 110600Z 01014G20KT 14/M03 A3002 RMK A01 T01401034  RH  030%=      5-min Rain = 0
KDO1 110601Z 02019G25KT 14/M03 A3002 RMK A01 T01401034  RH  030%=      5-min Rain = 0
KDO1 110602Z 01017G22KT 14/M03 A3002 RMK A01 T01391034  RH  030%=      5-min Rain = 0
KDO1 110603Z 01012G17KT 14/M03 A3002 RMK A01 T01391034  RH  030%=      5-min Rain = 0
KDO1 110604Z 01015G22KT 14/M03 A3002 RMK A01 T01391033  RH  030%=      5-min Rain = 0
KDO1 110605Z 02013KT 14/M03 A3002 RMK A01 T01391033  RH  030%=      5-min Rain = 0
KDO1 110606Z 02014G19KT 14/M03 A3002 RMK A01 T01381033  RH  030%=      5-min Rain = 0
KDO1 110607Z 02013KT 14/M03 A3002 RMK A01 T01381034  RH  030%=      5-min Rain = 0
KDO1 110608Z 02015G21KT 14/M03 A3002 RMK A01 T01371033  RH  030%=      5-min Rain = 0
KDO1 110609Z 01014G19KT 14/M03 A3002 RMK A01 T01371033  RH  031%=      5-min Rain = 0
KDO1 110610Z 02014G25KT 14/M03 A3003 RMK A01 T01371033  RH  031%=      5-min Rain = 0
KDO1 110611Z 01018KT 14/M03 A3003 RMK A01 T01381032  RH  031%=      5-min Rain = 0
KDO1 110612Z 01016G22KT 14/M03 A3003 RMK A01 T01381032  RH  031%=      5-min Rain = 0
KDO1 110613Z 01016KT 14/M03 A3003 RMK A01 T01381032  RH  031%=      5-min Rain = 0
KDO1 110614Z 02015G20KT 14/M03 A3003 RMK A01 T01371031  RH  031%=      5-min Rain = 0
KDO1 110615Z 01011G16KT 14/M03 A3003 RMK A01 T01371031  RH  031%=      5-min Rain = 0
KDO1 110616Z 00016KT 14/M03 A3003 RMK A01 T01361031  RH  031%=      5-min Rain = 0
KDO1 110617Z 01014KT 14/M03 A3003 RMK A01 T01361030  RH  031%=      5-min Rain = 0
KDO1 110618Z 02018G25KT 14/M03 A3003 RMK A01 T01361030  RH  031%=      5-min Rain = 0
KDO1 110619Z 01016KT 14/M03 A3003 RMK A01 T01371029  RH  032%=      5-min Rain = 0
KDO1 110620Z 01013KT 14/M03 A3003 RMK A01 T01361029  RH  032%=      5-min Rain = 0
KDO1 110621Z 01014KT 14/M03 A3003 RMK A01 T01361029  RH  032%=      5-min Rain = 0
KDO1 110622Z 02014G22KT 14/M03 A3003 RMK A01 T01351029  RH  032%=      5-min Rain = 0
KDO1 110623Z 01018G24KT 14/M03 A3003 RMK A01 T01351028  RH  032%=      5-min Rain = 0
KDO1 110624Z 01018KT 14/M03 A3003 RMK A01 T01351028  RH  032%=      5-min Rain = 0
KDO1 110625Z 01013KT 14/M03 A3003 RMK A01 T01351027  RH  032%=      5-min Rain = 0
KDO1 110626Z 01017G24KT 14/M03 A3003 RMK A01 T01351027  RH  033%=      5-min Rain = 0
KDO1 110627Z 01018G23KT 14/M03 A3003 RMK A01 T01351026  RH  033%=      5-min Rain = 0
KDO1 110628Z 01019G24KT 14/M03 A3003 RMK A01 T01351026  RH  033%=      5-min Rain = 0
KDO1 110629Z 02018G25KT 14/M03 A3003 RMK A01 T01351025  RH  033%=      5-min Rain = 0
KDO1 110630Z 01014KT 14/M03 A3003 RMK A01 T01351025  RH  033%=      5-min Rain = 0
KDO1 110631Z 01013G18KT 13/M03 A3003 RMK A01 T01341025  RH  033%=      5-min Rain = 0
KDO1 110632Z 01015KT 13/M02 A3003 RMK A01 T01341024  RH  033%=      5-min Rain = 0
KDO1 110633Z 01018G24KT 13/M02 A3003 RMK A01 T01331024  RH  034%=      5-min Rain = 0
KDO1 110634Z 01013G21KT 13/M02 A3003 RMK A01 T01331024  RH  034%=      5-min Rain = 0
KDO1 110635Z 00013G19KT 13/M02 A3004 RMK A01 T01331023  RH  034%=      5-min Rain = 0
KDO1 110636Z 01016G22KT 13/M02 A3004 RMK A01 T01321022  RH  034%=      5-min Rain = 0
KDO1 110637Z 01017KT 13/M02 A3004 RMK A01 T01321021  RH  034%=      5-min Rain = 0
KDO1 110638Z 01014G22KT 13/M02 A3004 RMK A01 T01321021  RH  035%=      5-min Rain = 0
KDO1 110639Z 01022G30KT 13/M02 A3004 RMK A01 T01321020  RH  035%=      5-min Rain = 0
KDO1 110640Z 01018KT 13/M02 A3004 RMK A01 T01321019  RH  035%=      5-min Rain = 0
KDO1 110641Z 01018KT 13/M02 A3004 RMK A01 T01331019  RH  035%=      5-min Rain = 0
KDO1 110642Z 01015G21KT 13/M02 A3004 RMK A01 T01321019  RH  035%=      5-min Rain = 0
KDO1 110643Z 01015G20KT 13/M02 A3004 RMK A01 T01321018  RH  035%=      5-min Rain = 0
KDO1 110644Z 01021G26KT 13/M02 A3004 RMK A01 T01321018  RH  035%=      5-min Rain = 0
KDO1 110645Z 01018G23KT 13/M02 A3004 RMK A01 T01321016  RH  036%=      5-min Rain = 0
KDO1 110646Z 01015KT 13/M02 A3004 RMK A01 T01321016  RH  036%=      5-min Rain = 0
KDO1 110647Z 01012G18KT 13/M02 A3004 RMK A01 T01321016  RH  036%=      5-min Rain = 0
KDO1 110648Z 01019G26KT 13/M02 A3004 RMK A01 T01311015  RH  036%=      5-min Rain = 0
KDO1 110649Z 01021KT 13/M02 A3005 RMK A01 T01311015  RH  036%=      5-min Rain = 0
KDO1 110650Z 01020G26KT 13/M02 A3005 RMK A01 T01311015  RH  036%=      5-min Rain = 0
KDO1 110651Z 01019G25KT 13/M01 A3005 RMK A01 T01311014  RH  037%=      5-min Rain = 0
KDO1 110652Z 01016G21KT 13/M01 A3005 RMK A01 T01311014  RH  037%=      5-min Rain = 0
KDO1 110653Z 01017KT 13/M01 A3005 RMK A01 T01311014  RH  037%=      5-min Rain = 0
KDO1 110654Z 01017G24KT 13/M01 A3005 RMK A01 T01311013  RH  037%=      5-min Rain = 0
KDO1 110655Z 01019G24KT 13/M01 A3005 RMK A01 T01301012  RH  037%=      5-min Rain = 0
KDO1 110656Z 02017G24KT 13/M01 A3005 RMK A01 T01311012  RH  037%=      5-min Rain = 0
KDO1 110657Z 01015G21KT 13/M01 A3005 RMK A01 T01301011  RH  038%=      5-min Rain = 0
KDO1 110658Z 02017G24KT 13/M01 A3005 RMK A01 T01301011  RH  038%=      5-min Rain = 0
KDO1 110659Z 01016KT 13/M01 A3005 RMK A01 T01301011  RH  038%=      5-min Rain = 0
KDO1 110700Z 01015KT 13/M01 A3005 RMK A01 T01301011  RH  038%=      5-min Rain = 0
KDO1 110701Z 00016KT 13/M01 A3005 RMK A01 T01291011  RH  038%=      5-min Rain = 0
KDO1 110702Z 01015G20KT 13/M01 A3005 RMK A01 T01281011  RH  038%=      5-min Rain = 0
KDO1 110703Z 00016G27KT 13/M01 A3005 RMK A01 T01281012  RH  038%=      5-min Rain = 0
KDO1 110704Z 02020G26KT 13/M01 A3005 RMK A01 T01281011  RH  038%=      5-min Rain = 0
KDO1 110705Z 02017G23KT 13/M01 A3005 RMK A01 T01281011  RH  038%=      5-min Rain = 0
KDO1 110706Z 01019G25KT 13/M01 A3005 RMK A01 T01281011  RH  038%=      5-min Rain = 0
KDO1 110707Z 01017G22KT 13/M01 A3005 RMK A01 T01281011  RH  038%=      5-min Rain = 0
KDO1 110708Z 02020KT 13/M01 A3006 RMK A01 T01271011  RH  038%=      5-min Rain = 0
KDO1 110709Z 01021G26KT 13/M01 A3006 RMK A01 T01271010  RH  038%=      5-min Rain = 0
KDO1 110710Z 01019G26KT 13/M01 A3006 RMK A01 T01271011  RH  038%=      5-min Rain = 0
KDO1 110711Z 01018G24KT 13/M01 A3006 RMK A01 T01271011  RH  038%=      5-min Rain = 0
KDO1 110712Z 02018G23KT 13/M01 A3006 RMK A01 T01271010  RH  039%=      5-min Rain = 0
KDO1 110713Z 01017G23KT 13/M01 A3006 RMK A01 T01271010  RH  039%=      5-min Rain = 0
KDO1 110714Z 01014KT 13/M01 A3006 RMK A01 T01271010  RH  039%=      5-min Rain = 0
KDO1 110715Z 02015G22KT 13/M01 A3006 RMK A01 T01261010  RH  039%=      5-min Rain = 0
KDO1 110716Z 01014G21KT 13/M01 A3006 RMK A01 T01261010  RH  039%=      5-min Rain = 0
KDO1 110717Z 01016G21KT 13/M01 A3006 RMK A01 T01261010  RH  039%=      5-min Rain = 0
KDO1 110718Z 01014G19KT 13/M01 A3006 RMK A01 T01261010  RH  039%=      5-min Rain = 0
KDO1 110719Z 02018KT 13/M01 A3006 RMK A01 T01251010  RH  039%=      5-min Rain = 0
KDO1 110720Z 01017KT 13/M01 A3006 RMK A01 T01251011  RH  039%=      5-min Rain = 0
KDO1 110721Z 01012G18KT 13/M01 A3006 RMK A01 T01251010  RH  039%=      5-min Rain = 0
KDO1 110722Z 01014G21KT 13/M01 A3006 RMK A01 T01251010  RH  039%=      5-min Rain = 0
KDO1 110723Z 01017KT 13/M01 A3006 RMK A01 T01251010  RH  039%=      5-min Rain = 0
KDO1 110724Z 02016G21KT 13/M01 A3006 RMK A01 T01251010  RH  039%=      5-min Rain = 0
KDO1 110725Z 02015G20KT 13/M01 A3006 RMK A01 T01251010  RH  039%=      5-min Rain = 0
KDO1 110726Z 01015G20KT 13/M01 A3006 RMK A01 T01251010  RH  039%=      5-min Rain = 0
KDO1 110727Z 01015KT 12/M01 A3006 RMK A01 T01241011  RH  039%=      5-min Rain = 0
KDO1 110728Z 02017G22KT 12/M01 A3006 RMK A01 T01241011  RH  039%=      5-min Rain = 0
KDO1 110729Z 01015G20KT 12/M01 A3006 RMK A01 T01241011  RH  039%=      5-min Rain = 0
KDO1 110730Z 01017KT 12/M01 A3006 RMK A01 T01241011  RH  039%=      5-min Rain = 0
KDO1 110731Z 01016KT 12/M01 A3006 RMK A01 T01241012  RH  039%=      5-min Rain = 0
KDO1 110732Z 01016G21KT 12/M01 A3006 RMK A01 T01241011  RH  039%=      5-min Rain = 0
KDO1 110733Z 02013KT 12/M01 A3006 RMK A01 T01241012  RH  039%=      5-min Rain = 0
KDO1 110734Z 01016KT 12/M01 A3006 RMK A01 T01231012  RH  039%=      5-min Rain = 0
KDO1 110735Z 02014KT 12/M01 A3006 RMK A01 T01231012  RH  039%=      5-min Rain = 0
KDO1 110736Z 01015G20KT 12/M01 A3006 RMK A01 T01231012  RH  039%=      5-min Rain = 0
KDO1 110737Z 01014G19KT 12/M01 A3006 RMK A01 T01231011  RH  039%=      5-min Rain = 0
KDO1 110738Z 01014KT 12/M01 A3006 RMK A01 T01221012  RH  039%=      5-min Rain = 0
KDO1 110739Z 02013G18KT 12/M01 A3006 RMK A01 T01221012  RH  039%=      5-min Rain = 0
KDO1 110740Z 02013KT 12/M01 A3006 RMK A01 T01211012  RH  039%=      5-min Rain = 0
KDO1 110741Z 01012G17KT 12/M01 A3006 RMK A01 T01211012  RH  039%=      5-min Rain = 0
KDO1 110742Z 02013G19KT 12/M01 A3007 RMK A01 T01211012  RH  040%=      5-min Rain = 0
KDO1 110743Z 01012G20KT 12/M01 A3007 RMK A01 T01211013  RH  040%=      5-min Rain = 0
KDO1 110744Z 01015G20KT 12/M01 A3007 RMK A01 T01211012  RH  040%=      5-min Rain = 0
KDO1 110745Z 01013KT 12/M01 A3007 RMK A01 T01211013  RH  039%=      5-min Rain = 0
KDO1 110746Z 02011KT 12/M01 A3007 RMK A01 T01211013  RH  039%=      5-min Rain = 0
KDO1 110747Z 02013KT 12/M01 A3007 RMK A01 T01201013  RH  040%=      5-min Rain = 0
KDO1 110748Z 02013KT 12/M01 A3007 RMK A01 T01201013  RH  040%=      5-min Rain = 0
KDO1 110749Z 01012G17KT 12/M01 A3007 RMK A01 T01201013  RH  040%=      5-min Rain = 0
KDO1 110750Z 03013KT 12/M01 A3007 RMK A01 T01201013  RH  040%=      5-min Rain = 0
KDO1 110751Z 02013G19KT 12/M01 A3007 RMK A01 T01201013  RH  040%=      5-min Rain = 0
KDO1 110752Z 02012KT 12/M01 A3007 RMK A01 T01191014  RH  040%=      5-min Rain = 0
KDO1 110753Z 02013KT 12/M01 A3007 RMK A01 T01191014  RH  040%=      5-min Rain = 0
KDO1 110754Z 02010KT 12/M01 A3007 RMK A01 T01191014  RH  040%=      5-min Rain = 0
KDO1 110755Z 02011G17KT 12/M01 A3007 RMK A01 T01191014  RH  040%=      5-min Rain = 0
KDO1 110756Z 02014KT 12/M01 A3007 RMK A01 T01181014  RH  040%=      5-min Rain = 0
KDO1 110757Z 02015KT 12/M01 A3007 RMK A01 T01181014  RH  040%=      5-min Rain = 0
KDO1 110758Z 01014KT 12/M01 A3007 RMK A01 T01181014  RH  040%=      5-min Rain = 0
KDO1 110759Z 02012G17KT 12/M01 A3007 RMK A01 T01181014  RH  040%=      5-min Rain = 0
KDO1 110800Z 02013KT 12/M01 A3007 RMK A01 T01181014  RH  040%=      5-min Rain = 0
KDO1 110801Z 02012KT 12/M01 A3007 RMK A01 T01181014  RH  040%=      5-min Rain = 0
KDO1 110802Z 02012G18KT 12/M01 A3007 RMK A01 T01181014  RH  040%=      5-min Rain = 0
KDO1 110803Z 01012KT 12/M01 A3007 RMK A01 T01171014  RH  040%=      5-min Rain = 0
KDO1 110804Z 02012KT 12/M01 A3007 RMK A01 T01171014  RH  040%=      5-min Rain = 0
KDO1 110805Z 02010KT 12/M01 A3007 RMK A01 T01171014  RH  040%=      5-min Rain = 0
KDO1 110806Z 01010KT 12/M01 A3007 RMK A01 T01171014  RH  040%=      5-min Rain = 0
KDO1 110807Z 02010KT 12/M01 A3007 RMK A01 T01161014  RH  040%=      5-min Rain = 0
KDO1 110808Z 02012G20KT 12/M01 A3007 RMK A01 T01161014  RH  041%=      5-min Rain = 0
KDO1 110809Z 02013KT 12/M01 A3007 RMK A01 T01151014  RH  041%=      5-min Rain = 0
KDO1 110810Z 01012KT 12/M01 A3007 RMK A01 T01161014  RH  041%=      5-min Rain = 0
KDO1 110811Z 02011KT 12/M01 A3007 RMK A01 T01151014  RH  041%=      5-min Rain = 0
KDO1 110812Z 01012G18KT 12/M01 A3007 RMK A01 T01151013  RH  041%=      5-min Rain = 0
KDO1 110813Z 01011KT 12/M01 A3007 RMK A01 T01151013  RH  041%=      5-min Rain = 0
KDO1 110814Z 01011KT 12/M01 A3007 RMK A01 T01151013  RH  041%=      5-min Rain = 0
KDO1 110815Z 01012KT 11/M01 A3007 RMK A01 T01141013  RH  041%=      5-min Rain = 0
KDO1 110816Z 01011KT 11/M01 A3007 RMK A01 T01141013  RH  041%=      5-min Rain = 0
KDO1 110817Z 01012KT 11/M01 A3007 RMK A01 T01141013  RH  041%=      5-min Rain = 0
KDO1 110818Z 01010KT 11/M01 A3007 RMK A01 T01131013  RH  041%=      5-min Rain = 0
KDO1 110819Z 01014KT 11/M01 A3007 RMK A01 T01131013  RH  042%=      5-min Rain = 0
KDO1 110820Z 00012KT 11/M01 A3008 RMK A01 T01131013  RH  042%=      5-min Rain = 0
KDO1 110821Z 01010KT 11/M01 A3008 RMK A01 T01131013  RH  042%=      5-min Rain = 0
KDO1 110822Z 01011G16KT 11/M01 A3008 RMK A01 T01121013  RH  042%=      5-min Rain = 0
KDO1 110823Z 01011KT 11/M01 A3008 RMK A01 T01111013  RH  042%=      5-min Rain = 0
KDO1 110824Z 00011KT 11/M01 A3008 RMK A01 T01111013  RH  042%=      5-min Rain = 0
KDO1 110825Z 00015G20KT 11/M01 A3008 RMK A01 T01111012  RH  042%=      5-min Rain = 0
KDO1 110826Z 00011G16KT 11/M01 A3008 RMK A01 T01111012  RH  042%=      5-min Rain = 0
KDO1 110827Z 01013KT 11/M01 A3008 RMK A01 T01111012  RH  042%=      5-min Rain = 0
KDO1 110828Z 00013KT 11/M01 A3008 RMK A01 T01101012  RH  043%=      5-min Rain = 0
KDO1 110829Z 01014KT 11/M01 A3008 RMK A01 T01101012  RH  043%=      5-min Rain = 0
KDO1 110830Z 00014G19KT 11/M01 A3008 RMK A01 T01091012  RH  043%=      5-min Rain = 0
KDO1 110831Z 36013KT 11/M01 A3008 RMK A01 T01091011  RH  043%=      5-min Rain = 0
KDO1 110832Z 01015KT 11/M01 A3008 RMK A01 T01091011  RH  043%=      5-min Rain = 0
KDO1 110833Z 01013KT 11/M01 A3008 RMK A01 T01091011  RH  043%=      5-min Rain = 0
KDO1 110834Z 00012KT 11/M01 A3008 RMK A01 T01091011  RH  043%=      5-min Rain = 0
KDO1 110835Z 00013KT 11/M01 A3008 RMK A01 T01081011  RH  044%=      5-min Rain = 0
KDO1 110836Z 00011KT 11/M01 A3008 RMK A01 T01081011  RH  044%=      5-min Rain = 0
KDO1 110837Z 00013KT 11/M01 A3008 RMK A01 T01071011  RH  044%=      5-min Rain = 0
KDO1 110838Z 00014G19KT 11/M01 A3008 RMK A01 T01071010  RH  044%=      5-min Rain = 0
KDO1 110839Z 00013KT 11/M01 A3008 RMK A01 T01071010  RH  044%=      5-min Rain = 0
KDO1 110840Z 36014G19KT 11/M01 A3008 RMK A01 T01071010  RH  044%=      5-min Rain = 0
KDO1 110841Z 00015KT 11/M01 A3008 RMK A01 T01071010  RH  044%=      5-min Rain = 0
KDO1 110842Z 00014KT 11/M01 A3008 RMK A01 T01071010  RH  044%=      5-min Rain = 0
KDO1 110843Z 00014KT 11/M01 A3008 RMK A01 T01071010  RH  044%=      5-min Rain = 0
KDO1 110844Z 00012KT 11/M01 A3008 RMK A01 T01071010  RH  044%=      5-min Rain = 0
KDO1 110845Z 36013G20KT 11/M01 A3008 RMK A01 T01071010  RH  044%=      5-min Rain = 0
KDO1 110846Z 36016KT 11/M01 A3008 RMK A01 T01071009  RH  045%=      5-min Rain = 0
KDO1 110847Z 00012G17KT 11/M01 A3008 RMK A01 T01061009  RH  045%=      5-min Rain = 0
KDO1 110848Z 00012G17KT 11/M01 A3008 RMK A01 T01061010  RH  045%=      5-min Rain = 0
KDO1 110849Z 01013KT 11/M01 A3009 RMK A01 T01051009  RH  045%=      5-min Rain = 0
KDO1 110850Z 00016KT 11/M01 A3008 RMK A01 T01051009  RH  045%=      5-min Rain = 0
KDO1 110851Z 01014KT 11/M01 A3009 RMK A01 T01051009  RH  045%=      5-min Rain = 0
KDO1 110852Z 00014G19KT 11/M01 A3009 RMK A01 T01051009  RH  045%=      5-min Rain = 0
KDO1 110853Z 36012G17KT 11/M01 A3009 RMK A01 T01051008  RH  045%=      5-min Rain = 0
KDO1 110854Z 00013KT 11/M01 A3009 RMK A01 T01051008  RH  045%=      5-min Rain = 0
KDO1 110855Z 00015KT 11/M01 A3009 RMK A01 T01051008  RH  045%=      5-min Rain = 0
KDO1 110856Z 00016KT 10/M01 A3009 RMK A01 T01041008  RH  046%=      5-min Rain = 0
KDO1 110857Z 01012G19KT 10/M01 A3009 RMK A01 T01041008  RH  046%=      5-min Rain = 0
KDO1 110858Z 00012KT 11/M01 A3009 RMK A01 T01051007  RH  046%=      5-min Rain = 0
KDO1 110859Z 01013KT 10/M01 A3009 RMK A01 T01041008  RH  046%=      5-min Rain = 0
KDO1 110900Z 01014KT 10/M01 A3009 RMK A01 T01041007  RH  046%=      5-min Rain = 0
KDO1 110901Z 01012KT 10/M01 A3009 RMK A01 T01041007  RH  046%=      5-min Rain = 0
KDO1 110902Z 00014G20KT 10/M01 A3009 RMK A01 T01041007  RH  046%=      5-min Rain = 0
KDO1 110903Z 00013KT 10/M01 A3009 RMK A01 T01041007  RH  046%=      5-min Rain = 0
KDO1 110904Z 00011G16KT 10/M01 A3009 RMK A01 T01041007  RH  046%=      5-min Rain = 0
KDO1 110905Z 00014KT 10/M01 A3009 RMK A01 T01041007  RH  046%=      5-min Rain = 0
KDO1 110906Z 00011KT 10/M01 A3009 RMK A01 T01041007  RH  046%=      5-min Rain = 0
KDO1 110907Z 00011G16KT 10/M01 A3009 RMK A01 T01031007  RH  046%=      5-min Rain = 0
KDO1 110908Z 01015KT 10/M01 A3009 RMK A01 T01031007  RH  046%=      5-min Rain = 0
KDO1 110909Z 00011G16KT 10/M01 A3009 RMK A01 T01031007  RH  046%=      5-min Rain = 0
KDO1 110910Z 01013KT 10/M01 A3009 RMK A01 T01031007  RH  046%=      5-min Rain = 0
KDO1 110911Z 01013KT 10/M01 A3009 RMK A01 T01031007  RH  047%=      5-min Rain = 0
KDO1 110912Z 01015G20KT 10/M01 A3009 RMK A01 T01021007  RH  047%=      5-min Rain = 0
KDO1 110913Z 00015G20KT 10/M01 A3009 RMK A01 T01021007  RH  047%=      5-min Rain = 0
KDO1 110914Z 00013KT 10/M01 A3009 RMK A01 T01021007  RH  047%=      5-min Rain = 0
KDO1 110915Z 01013KT 10/M01 A301 RMK A01 T01021007  RH  047%=      5-min Rain = 0
KDO1 110916Z 00014G19KT 10/M01 A3009 RMK A01 T01021007  RH  047%=      5-min Rain = 0
KDO1 110917Z 00013KT 10/M01 A301 RMK A01 T01021007  RH  047%=      5-min Rain = 0
KDO1 110918Z 00014KT 10/M01 A301 RMK A01 T01021008  RH  047%=      5-min Rain = 0
KDO1 110919Z 00015G21KT 10/M01 A301 RMK A01 T01021008  RH  047%=      5-min Rain = 0
KDO1 110920Z 01016G21KT 10/M01 A301 RMK A01 T01021008  RH  047%=      5-min Rain = 0
KDO1 110921Z 01012KT 10/M01 A301 RMK A01 T01021008  RH  046%=      5-min Rain = 0
KDO1 110922Z 01013KT 10/M01 A301 RMK A01 T01011008  RH  046%=      5-min Rain = 0
KDO1 110923Z 01013KT 10/M01 A301 RMK A01 T01011008  RH  047%=      5-min Rain = 0
KDO1 110924Z 01013KT 10/M01 A301 RMK A01 T01011008  RH  047%=      5-min Rain = 0
KDO1 110925Z 00014KT 10/M01 A301 RMK A01 T01011008  RH  047%=      5-min Rain = 0
KDO1 110926Z 01013KT 10/M01 A301 RMK A01 T01011008  RH  047%=      5-min Rain = 0
KDO1 110927Z 01012KT 10/M01 A301 RMK A01 T01011009  RH  047%=      5-min Rain = 0
KDO1 110928Z 00014G19KT 10/M01 A301 RMK A01 T01001009  RH  047%=      5-min Rain = 0
KDO1 110929Z 00014KT 10/M01 A301 RMK A01 T01001009  RH  047%=      5-min Rain = 0
KDO1 110930Z 01013G21KT 10/M01 A301 RMK A01 T01001009  RH  047%=      5-min Rain = 0
KDO1 110931Z 01016G23KT 10/M01 A301 RMK A01 T01001009  RH  046%=      5-min Rain = 0
KDO1 110932Z 01014G19KT 10/M01 A301 RMK A01 T01001009  RH  046%=      5-min Rain = 0
KDO1 110933Z 01015KT 10/M01 A301 RMK A01 T01001009  RH  046%=      5-min Rain = 0
KDO1 110934Z 01013G22KT 10/M01 A301 RMK A01 T01001010  RH  047%=      5-min Rain = 0
KDO1 110935Z 00015KT 10/M01 A301 RMK A01 T01001009  RH  047%=      5-min Rain = 0
KDO1 110936Z 01014G20KT 10/M01 A301 RMK A01 T01001009  RH  047%=      5-min Rain = 0
KDO1 110937Z 36009G14KT 10/M01 A301 RMK A01 T01001009  RH  047%=      5-min Rain = 0
KDO1 110938Z 00011KT 10/M01 A301 RMK A01 T00981009  RH  047%=      5-min Rain = 0
KDO1 110939Z 00014KT 10/M01 A301 RMK A01 T00981009  RH  047%=      5-min Rain = 0
KDO1 110940Z 00013KT 10/M01 A301 RMK A01 T00981009  RH  047%=      5-min Rain = 0
KDO1 110941Z 00016G21KT 10/M01 A301 RMK A01 T00981009  RH  047%=      5-min Rain = 0
KDO1 110942Z 01016G21KT 10/M01 A301 RMK A01 T00981009  RH  047%=      5-min Rain = 0
KDO1 110943Z 00014G21KT 10/M01 A3011 RMK A01 T00981009  RH  047%=      5-min Rain = 0
KDO1 110944Z 00014KT 10/M01 A301 RMK A01 T00981008  RH  047%=      5-min Rain = 0
KDO1 110945Z 00013G21KT 10/M01 A301 RMK A01 T00971008  RH  048%=      5-min Rain = 0
KDO1 110946Z 00012KT 10/M01 A301 RMK A01 T00971008  RH  048%=      5-min Rain = 0
KDO1 110947Z 00011KT 10/M01 A3011 RMK A01 T00961008  RH  048%=      5-min Rain = 0
KDO1 110948Z 01015KT 10/M01 A3011 RMK A01 T00961008  RH  048%=      5-min Rain = 0
KDO1 110949Z 00013KT 10/M01 A3011 RMK A01 T00961008  RH  048%=      5-min Rain = 0
KDO1 110950Z 01013KT 10/M01 A3011 RMK A01 T00961008  RH  048%=      5-min Rain = 0
KDO1 110951Z 00013G19KT 10/M01 A3011 RMK A01 T00961008  RH  048%=      5-min Rain = 0
KDO1 110952Z 00015G20KT 10/M01 A3011 RMK A01 T00951008  RH  049%=      5-min Rain = 0
KDO1 110953Z 01015G20KT 10/M01 A3011 RMK A01 T00951008  RH  049%=      5-min Rain = 0
KDO1 110954Z 01016KT 10/M01 A3011 RMK A01 T00951008  RH  048%=      5-min Rain = 0
KDO1 110955Z 00013KT 10/M01 A3011 RMK A01 T00961008  RH  048%=      5-min Rain = 0
KDO1 110956Z 01013KT 10/M01 A3011 RMK A01 T00961008  RH  048%=      5-min Rain = 0
KDO1 110957Z 01016KT 10/M01 A3011 RMK A01 T00961008  RH  048%=      5-min Rain = 0
KDO1 110958Z 01014KT 10/M01 A3011 RMK A01 T00961008  RH  048%=      5-min Rain = 0
KDO1 110959Z 01012G17KT 10/M01 A3011 RMK A01 T00961008  RH  048%=      5-min Rain = 0
KDO1 111000Z 01014KT 10/M01 A3011 RMK A01 T00951008  RH  048%=      5-min Rain = 0
KDO1 111001Z 01015KT 10/M01 A3011 RMK A01 T00951008  RH  048%=      5-min Rain = 0
KDO1 111002Z 01015KT 10/M01 A3011 RMK A01 T00951008  RH  048%=      5-min Rain = 0
KDO1 111003Z 01013G20KT 10/M01 A3011 RMK A01 T00951008  RH  048%=      5-min Rain = 0
KDO1 111004Z 01015G21KT 10/M01 A3011 RMK A01 T00951009  RH  048%=      5-min Rain = 0
KDO1 111005Z 01015KT 10/M01 A3011 RMK A01 T00951009  RH  048%=      5-min Rain = 0
KDO1 111006Z 00013KT 10/M01 A3011 RMK A01 T00951009  RH  048%=      5-min Rain = 0
KDO1 111007Z 01016KT 09/M01 A3011 RMK A01 T00941009  RH  048%=      5-min Rain = 0
KDO1 111008Z 01015G21KT 09/M01 A3011 RMK A01 T00941010  RH  048%=      5-min Rain = 0
KDO1 111009Z 01015KT 10/M01 A3012 RMK A01 T00951010  RH  048%=      5-min Rain = 0
KDO1 111010Z 01015KT 09/M01 A3012 RMK A01 T00941010  RH  048%=      5-min Rain = 0
KDO1 111011Z 01013KT 09/M01 A3012 RMK A01 T00941010  RH  048%=      5-min Rain = 0
KDO1 111012Z 01017G22KT 09/M01 A3012 RMK A01 T00941010  RH  048%=      5-min Rain = 0
KDO1 111013Z 01015KT 10/M01 A3012 RMK A01 T00951010  RH  048%=      5-min Rain = 0
KDO1 111014Z 01016G21KT 09/M01 A3012 RMK A01 T00941010  RH  048%=      5-min Rain = 0
KDO1 111015Z 36015KT 09/M01 A3012 RMK A01 T00941011  RH  048%=      5-min Rain = 0
KDO1 111016Z 01014KT 09/M01 A3012 RMK A01 T00941011  RH  048%=      5-min Rain = 0
KDO1 111017Z 01016KT 09/M01 A3012 RMK A01 T00931011  RH  048%=      5-min Rain = 0
KDO1 111018Z 00013KT 09/M01 A3012 RMK A01 T00941011  RH  048%=      5-min Rain = 0
KDO1 111019Z 36014KT 09/M01 A3012 RMK A01 T00931011  RH  048%=      5-min Rain = 0
KDO1 111020Z 00012KT 09/M01 A3012 RMK A01 T00921011  RH  048%=      5-min Rain = 0
KDO1 111021Z 00015KT 09/M01 A3012 RMK A01 T00921011  RH  049%=      5-min Rain = 0
KDO1 111022Z 00017KT 09/M01 A3012 RMK A01 T00921011  RH  049%=      5-min Rain = 0
KDO1 111023Z 00018KT 09/M01 A3012 RMK A01 T00921011  RH  049%=      5-min Rain = 0
KDO1 111024Z 36012KT 09/M01 A3012 RMK A01 T00921011  RH  049%=      5-min Rain = 0
KDO1 111025Z 00013G18KT 09/M01 A3012 RMK A01 T00921011  RH  049%=      5-min Rain = 0
KDO1 111026Z 00013G18KT 09/M01 A3012 RMK A01 T00911011  RH  049%=      5-min Rain = 0
KDO1 111027Z 00014KT 09/M01 A3012 RMK A01 T00911011  RH  049%=      5-min Rain = 0
KDO1 111028Z 00012KT 09/M01 A3012 RMK A01 T00911011  RH  049%=      5-min Rain = 0
KDO1 111029Z 36014KT 09/M01 A3012 RMK A01 T00911010  RH  049%=      5-min Rain = 0
KDO1 111030Z 00013G18KT 09/M01 A3012 RMK A01 T00911011  RH  049%=      5-min Rain = 0
KDO1 111031Z 01014KT 09/M01 A3013 RMK A01 T00901011  RH  049%=      5-min Rain = 0
KDO1 111032Z 00016G21KT 09/M01 A3013 RMK A01 T00901011  RH  049%=      5-min Rain = 0
KDO1 111033Z 36016KT 09/M01 A3013 RMK A01 T00901011  RH  049%=      5-min Rain = 0
KDO1 111034Z 36017KT 09/M01 A3013 RMK A01 T00901012  RH  049%=      5-min Rain = 0
KDO1 111035Z 00017G28KT 09/M01 A3013 RMK A01 T00901012  RH  049%=      5-min Rain = 0
KDO1 111036Z 00020G26KT 09/M01 A3013 RMK A01 T00901014  RH  048%=      5-min Rain = 0
KDO1 111037Z 36018KT 09/M02 A3013 RMK A01 T00901015  RH  048%=      5-min Rain = 0
KDO1 111038Z 36020KT 09/M02 A3013 RMK A01 T00901016  RH  047%=      5-min Rain = 0
KDO1 111039Z 00020G28KT 09/M02 A3013 RMK A01 T00901019  RH  046%=      5-min Rain = 0
KDO1 111040Z 00016KT 09/M02 A3013 RMK A01 T00901019  RH  046%=      5-min Rain = 0
KDO1 111041Z 01016G24KT 09/M02 A3013 RMK A01 T00891019  RH  047%=      5-min Rain = 0
KDO1 111042Z 00022G28KT 09/M02 A3013 RMK A01 T00891020  RH  046%=      5-min Rain = 0
KDO1 111043Z 36018G25KT 09/M02 A3013 RMK A01 T00891021  RH  046%=      5-min Rain = 0
KDO1 111044Z 36015G20KT 09/M02 A3013 RMK A01 T00891022  RH  046%=      5-min Rain = 0
KDO1 111045Z 01017G23KT 09/M02 A3014 RMK A01 T00881022  RH  046%=      5-min Rain = 0
KDO1 111046Z 00018KT 09/M02 A3014 RMK A01 T00881023  RH  046%=      5-min Rain = 0
KDO1 111047Z 36017G22KT 09/M02 A3014 RMK A01 T00881023  RH  046%=      5-min Rain = 0
KDO1 111048Z 00014KT 09/M02 A3014 RMK A01 T00881024  RH  046%=      5-min Rain = 0
KDO1 111049Z 00017KT 09/M02 A3014 RMK A01 T00871024  RH  046%=      5-min Rain = 0
KDO1 111050Z 00020G27KT 09/M02 A3014 RMK A01 T00871024  RH  045%=      5-min Rain = 0
KDO1 111051Z 00018G24KT 09/M02 A3014 RMK A01 T00871024  RH  045%=      5-min Rain = 0
KDO1 111052Z 36019KT 09/M03 A3014 RMK A01 T00871025  RH  045%=      5-min Rain = 0
KDO1 111053Z 36014KT 09/M03 A3014 RMK A01 T00871025  RH  045%=      5-min Rain = 0
KDO1 111054Z 36012G17KT 09/M02 A3014 RMK A01 T00861024  RH  046%=      5-min Rain = 0
KDO1 111055Z 36014KT 09/M02 A3014 RMK A01 T00861024  RH  046%=      5-min Rain = 0
KDO1 111056Z 35014G20KT 09/M02 A3014 RMK A01 T00851024  RH  046%=      5-min Rain = 0
KDO1 111057Z 36015G20KT 09/M02 A3014 RMK A01 T00851024  RH  046%=      5-min Rain = 0
KDO1 111058Z 35015G20KT 09/M03 A3014 RMK A01 T00851025  RH  046%=      5-min Rain = 0
KDO1 111059Z 35019KT 09/M03 A3014 RMK A01 T00851027  RH  045%=      5-min Rain = 0
KDO1 111100Z 35018KT 09/M03 A3014 RMK A01 T00851028  RH  045%=      5-min Rain = 0
KDO1 111101Z 35018G25KT 09/M03 A3014 RMK A01 T00851030  RH  044%=      5-min Rain = 0
KDO1 111102Z 35016G21KT 09/M03 A3014 RMK A01 T00851031  RH  044%=      5-min Rain = 0
KDO1 111103Z 35016G21KT 08/M03 A3014 RMK A01 T00841031  RH  044%=      5-min Rain = 0
KDO1 111104Z 35021KT 08/M03 A3014 RMK A01 T00831033  RH  044%=      5-min Rain = 0
KDO1 111105Z 35018G23KT 08/M04 A3014 RMK A01 T00831036  RH  043%=      5-min Rain = 0
KDO1 111106Z 35020KT 08/M04 A3014 RMK A01 T00821038  RH  043%=      5-min Rain = 0
KDO1 111107Z 35019G24KT 08/M04 A3014 RMK A01 T00821039  RH  042%=      5-min Rain = 0
KDO1 111108Z 35019KT 08/M04 A3015 RMK A01 T00811041  RH  042%=      5-min Rain = 0
KDO1 111109Z 35018KT 08/M04 A3015 RMK A01 T00811041  RH  042%=      5-min Rain = 0
KDO1 111110Z 35022KT 08/M04 A3015 RMK A01 T00801042  RH  042%=      5-min Rain = 0
KDO1 111111Z 35022G31KT 08/M04 A3015 RMK A01 T00801043  RH  041%=      5-min Rain = 0
KDO1 111112Z 35019G27KT 08/M04 A3015 RMK A01 T00791044  RH  041%=      5-min Rain = 0
KDO1 111113Z 35017G23KT 08/M05 A3015 RMK A01 T00791045  RH  041%=      5-min Rain = 0
KDO1 111114Z 36019G24KT 08/M05 A3015 RMK A01 T00791045  RH  041%=      5-min Rain = 0
KDO1 111115Z 00019G25KT 08/M05 A3015 RMK A01 T00781046  RH  041%=      5-min Rain = 0
KDO1 111116Z 36019G24KT 08/M05 A3015 RMK A01 T00781047  RH  041%=      5-min Rain = 0
KDO1 111117Z 36018KT 08/M05 A3015 RMK A01 T00781046  RH  041%=      5-min Rain = 0
KDO1 111118Z 01015G21KT 08/M05 A3015 RMK A01 T00771047  RH  041%=      5-min Rain = 0
KDO1 111119Z 35015KT 08/M05 A3015 RMK A01 T00771047  RH  041%=      5-min Rain = 0
KDO1 111120Z 36015KT 08/M05 A3015 RMK A01 T00761047  RH  041%=      5-min Rain = 0
KDO1 111121Z 35014G19KT 08/M05 A3016 RMK A01 T00751047  RH  041%=      5-min Rain = 0
KDO1 111122Z 35015G20KT 08/M05 A3016 RMK A01 T00751047  RH  042%=      5-min Rain = 0
KDO1 111123Z 36017KT 07/M05 A3016 RMK A01 T00741048  RH  042%=      5-min Rain = 0
KDO1 111124Z 35015KT 07/M05 A3016 RMK A01 T00741048  RH  042%=      5-min Rain = 0
KDO1 111125Z 36012G20KT 07/M05 A3016 RMK A01 T00741048  RH  042%=      5-min Rain = 0
KDO1 111126Z 35016G21KT 07/M05 A3016 RMK A01 T00731048  RH  042%=      5-min Rain = 0
KDO1 111127Z 35017G24KT 07/M05 A3016 RMK A01 T00721048  RH  042%=      5-min Rain = 0
KDO1 111128Z 36016KT 07/M05 A3016 RMK A01 T00721048  RH  042%=      5-min Rain = 0
KDO1 111129Z 36018KT 07/M05 A3016 RMK A01 T00721048  RH  042%=      5-min Rain = 0
KDO1 111130Z 36023G28KT 07/M05 A3016 RMK A01 T00711048  RH  042%=      5-min Rain = 0
KDO1 111131Z 36020G27KT 07/M05 A3016 RMK A01 T00711047  RH  043%=      5-min Rain = 0
KDO1 111132Z 00021G28KT 07/M05 A3016 RMK A01 T00711046  RH  043%=      5-min Rain = 0
KDO1 111133Z 36019KT 07/M05 A3016 RMK A01 T00711045  RH  043%=      5-min Rain = 0
KDO1 111134Z 36020G25KT 07/M04 A3016 RMK A01 T00711044  RH  044%=      5-min Rain = 0
KDO1 111135Z 36019G26KT 07/M04 A3016 RMK A01 T00701044  RH  044%=      5-min Rain = 0
KDO1 111136Z 36020G26KT 07/M04 A3016 RMK A01 T00701043  RH  044%=      5-min Rain = 0
KDO1 111137Z 00020G27KT 07/M04 A3017 RMK A01 T00701042  RH  045%=      5-min Rain = 0
KDO1 111138Z 36018G23KT 07/M04 A3017 RMK A01 T00691042  RH  045%=      5-min Rain = 0
KDO1 111139Z 00018G24KT 07/M04 A3017 RMK A01 T00691042  RH  045%=      5-min Rain = 0
KDO1 111140Z 00014KT 07/M04 A3017 RMK A01 T00691041  RH  045%=      5-min Rain = 0
KDO1 111141Z 36017G22KT 07/M04 A3017 RMK A01 T00681042  RH  046%=      5-min Rain = 0
KDO1 111142Z 36017G23KT 07/M04 A3017 RMK A01 T00681041  RH  046%=      5-min Rain = 0
KDO1 111143Z 35016G21KT 07/M04 A3017 RMK A01 T00671040  RH  046%=      5-min Rain = 0
KDO1 111144Z 36020KT 07/M04 A3017 RMK A01 T00671040  RH  046%=      5-min Rain = 0
KDO1 111145Z 00020G25KT 07/M04 A3017 RMK A01 T00671039  RH  047%=      5-min Rain = 0
KDO1 111146Z 36017KT 07/M04 A3017 RMK A01 T00671038  RH  047%=      5-min Rain = 0
KDO1 111147Z 35017G23KT 07/M04 A3017 RMK A01 T00661038  RH  047%=      5-min Rain = 0
KDO1 111148Z 36016KT 07/M04 A3017 RMK A01 T00661038  RH  048%=      5-min Rain = 0
KDO1 111149Z 36018G23KT 07/M04 A3017 RMK A01 T00651038  RH  048%=      5-min Rain = 0
KDO1 111150Z 36016KT 07/M04 A3017 RMK A01 T00651037  RH  048%=      5-min Rain = 0
KDO1 111151Z 36019G24KT 07/M04 A3018 RMK A01 T00651037  RH  048%=      5-min Rain = 0
KDO1 111152Z 36018G23KT 06/M04 A3018 RMK A01 T00641036  RH  049%=      5-min Rain = 0
KDO1 111153Z 36018G25KT 06/M04 A3018 RMK A01 T00641036  RH  049%=      5-min Rain = 0
KDO1 111154Z 00021G28KT 06/M04 A3018 RMK A01 T00641035  RH  049%=      5-min Rain = 0
KDO1 111155Z 00018G25KT 06/M04 A3018 RMK A01 T00641035  RH  049%=      5-min Rain = 0
KDO1 111156Z 00014G20KT 06/M04 A3018 RMK A01 T00631035  RH  049%=      5-min Rain = 0
KDO1 111157Z 00014KT 06/M04 A3018 RMK A01 T00621035  RH  050%=      5-min Rain = 0
KDO1 111158Z 00016KT 06/M04 A3018 RMK A01 T00621035  RH  050%=      5-min Rain = 0
KDO1 111159Z 00015G20KT 06/M03 A3018 RMK A01 T00621034  RH  050%=      5-min Rain = 0
KDO1 111200Z 01016G22KT 06/M03 A3018 RMK A01 T00611034  RH  051%=      5-min Rain = 0
KDO1 111201Z 36022KT 06/M03 A3018 RMK A01 T00621033  RH  051%=      5-min Rain = 0
KDO1 111202Z 36017G23KT 06/M03 A3018 RMK A01 T00621033  RH  051%=      5-min Rain = 0
KDO1 111203Z 00017KT 06/M03 A3018 RMK A01 T00611033  RH  051%=      5-min Rain = 0
KDO1 111204Z 36014G19KT 06/M03 A3018 RMK A01 T00611033  RH  051%=      5-min Rain = 0
KDO1 111205Z 36013KT 06/M03 A3018 RMK A01 T00601033  RH  051%=      5-min Rain = 0
KDO1 111206Z 00015G20KT 06/M03 A3018 RMK A01 T00601032  RH  052%=      5-min Rain = 0
KDO1 111207Z 36014G20KT 06/M03 A3018 RMK A01 T00591032  RH  052%=      5-min Rain = 0
KDO1 111208Z 00015G20KT 06/M03 A3018 RMK A01 T00591032  RH  052%=      5-min Rain = 0
KDO1 111209Z 36016KT 06/M03 A3018 RMK A01 T00591031  RH  052%=      5-min Rain = 0
KDO1 111210Z 00015G20KT 06/M03 A3019 RMK A01 T00591031  RH  053%=      5-min Rain = 0
KDO1 111211Z 01016KT 06/M03 A3019 RMK A01 T00581031  RH  053%=      5-min Rain = 0
KDO1 111212Z 00017G23KT 06/M03 A3018 RMK A01 T00581030  RH  053%=      5-min Rain = 0
KDO1 111213Z 36018KT 06/M03 A3018 RMK A01 T00581030  RH  053%=      5-min Rain = 0
KDO1 111214Z 36019KT 06/M03 A3018 RMK A01 T00581030  RH  053%=      5-min Rain = 0
KDO1 111215Z 36015G21KT 06/M03 A3018 RMK A01 T00581030  RH  053%=      5-min Rain = 0
KDO1 111216Z 00015KT 06/M03 A3019 RMK A01 T00571030  RH  054%=      5-min Rain = 0
KDO1 111217Z 00014KT 06/M03 A3019 RMK A01 T00571029  RH  054%=      5-min Rain = 0
KDO1 111218Z 00014G21KT 06/M03 A3019 RMK A01 T00561029  RH  054%=      5-min Rain = 0
KDO1 111219Z 00016KT 06/M03 A3019 RMK A01 T00561029  RH  054%=      5-min Rain = 0
KDO1 111220Z 01017G24KT 06/M03 A3019 RMK A01 T00561028  RH  055%=      5-min Rain = 0
KDO1 111221Z 00016KT 06/M03 A3019 RMK A01 T00561028  RH  055%=      5-min Rain = 0
KDO1 111222Z 36020KT 06/M03 A3019 RMK A01 T00561027  RH  055%=      5-min Rain = 0
KDO1 111223Z 36018KT 06/M03 A3019 RMK A01 T00551027  RH  055%=      5-min Rain = 0
KDO1 111224Z 36015G21KT 06/M03 A302 RMK A01 T00551026  RH  056%=      5-min Rain = 0
KDO1 111225Z 01012KT 06/M03 A3019 RMK A01 T00551026  RH  056%=      5-min Rain = 0
KDO1 111226Z 01014G19KT 05/M03 A3019 RMK A01 T00541026  RH  056%=      5-min Rain = 0
KDO1 111227Z 00013G18KT 05/M03 A3019 RMK A01 T00541025  RH  057%=      5-min Rain = 0
KDO1 111228Z 00014G20KT 05/M03 A302 RMK A01 T00541025  RH  057%=      5-min Rain = 0
KDO1 111229Z 36017G22KT 05/M03 A302 RMK A01 T00531025  RH  057%=      5-min Rain = 0
KDO1 111230Z 36013KT 05/M02 A302 RMK A01 T00531024  RH  057%=      5-min Rain = 0
KDO1 111231Z 36011G16KT 05/M03 A302 RMK A01 T00531025  RH  057%=      5-min Rain = 0
KDO1 111232Z 36013KT 05/M03 A302 RMK A01 T00521025  RH  057%=      5-min Rain = 0
KDO1 111233Z 36013G18KT 05/M03 A302 RMK A01 T00521025  RH  057%=      5-min Rain = 0
KDO1 111234Z 35013KT 05/M03 A302 RMK A01 T00521026  RH  057%=      5-min Rain = 0
KDO1 111235Z 36015G20KT 05/M03 A302 RMK A01 T00521026  RH  057%=      5-min Rain = 0
KDO1 111236Z 00016KT 05/M03 A302 RMK A01 T00521026  RH  057%=      5-min Rain = 0
KDO1 111237Z 36015KT 05/M03 A302 RMK A01 T00521026  RH  057%=      5-min Rain = 0
KDO1 111238Z 35014KT 05/M03 A302 RMK A01 T00511026  RH  057%=      5-min Rain = 0
KDO1 111239Z 35014KT 05/M03 A302 RMK A01 T00511027  RH  057%=      5-min Rain = 0
KDO1 111240Z 36014KT 05/M03 A302 RMK A01 T00511026  RH  058%=      5-min Rain = 0
KDO1 111241Z 35016G21KT 05/M03 A302 RMK A01 T00501026  RH  058%=      5-min Rain = 0
KDO1 111242Z 00012KT 05/M03 A302 RMK A01 T00501026  RH  058%=      5-min Rain = 0
KDO1 111243Z 00015G21KT 05/M03 A302 RMK A01 T00501026  RH  058%=      5-min Rain = 0
KDO1 111244Z 36013KT 05/M03 A302 RMK A01 T00501025  RH  058%=      5-min Rain = 0
KDO1 111245Z 36017KT 05/M03 A302 RMK A01 T00501026  RH  058%=      5-min Rain = 0
KDO1 111246Z 36015KT 05/M03 A302 RMK A01 T00491025  RH  058%=      5-min Rain = 0
KDO1 111247Z 01013G18KT 05/M03 A302 RMK A01 T00491026  RH  058%=      5-min Rain = 0
KDO1 111248Z 00013G20KT 05/M03 A302 RMK A01 T00501025  RH  058%=      5-min Rain = 0
KDO1 111249Z 36012KT 05/M03 A3021 RMK A01 T00491026  RH  058%=      5-min Rain = 0
KDO1 111250Z 36014KT 05/M03 A3021 RMK A01 T00491025  RH  059%=      5-min Rain = 0
KDO1 111251Z 00011KT 05/M03 A3021 RMK A01 T00491025  RH  059%=      5-min Rain = 0
KDO1 111252Z 36015G20KT 05/M03 A3021 RMK A01 T00491025  RH  058%=      5-min Rain = 0
KDO1 111253Z 35014KT 05/M03 A3021 RMK A01 T00491026  RH  058%=      5-min Rain = 0
KDO1 111254Z 00015KT 05/M03 A3021 RMK A01 T00491028  RH  058%=      5-min Rain = 0
KDO1 111255Z 36012KT 05/M03 A3021 RMK A01 T00491028  RH  057%=      5-min Rain = 0
KDO1 111256Z 36015KT 05/M03 A3021 RMK A01 T00491028  RH  057%=      5-min Rain = 0
KDO1 111257Z 35015KT 05/M03 A3021 RMK A01 T00491029  RH  057%=      5-min Rain = 0
KDO1 111258Z 00017KT 05/M03 A3021 RMK A01 T00491030  RH  057%=      5-min Rain = 0
KDO1 111259Z 00014KT 05/M03 A3021 RMK A01 T00491030  RH  057%=      5-min Rain = 0
KDO1 111300Z 36014G20KT 05/M03 A3021 RMK A01 T00491030  RH  057%=      5-min Rain = 0
KDO1 111301Z 36014G19KT 05/M03 A3021 RMK A01 T00491030  RH  057%=      5-min Rain = 0
KDO1 111302Z 36014G20KT 05/M03 A3021 RMK A01 T00491031  RH  056%=      5-min Rain = 0
KDO1 111303Z 36016KT 05/M03 A3021 RMK A01 T00491032  RH  056%=      5-min Rain = 0
KDO1 111304Z 36017G22KT 05/M03 A3022 RMK A01 T00481033  RH  056%=      5-min Rain = 0
KDO1 111305Z 00016G21KT 05/M03 A3022 RMK A01 T00491033  RH  055%=      5-min Rain = 0
KDO1 111306Z 00020G25KT 05/M03 A3022 RMK A01 T00491033  RH  055%=      5-min Rain = 0
KDO1 111307Z 00017KT 05/M03 A3022 RMK A01 T00491034  RH  055%=      5-min Rain = 0
KDO1 111308Z 35012KT 05/M03 A3022 RMK A01 T00491034  RH  055%=      5-min Rain = 0
KDO1 111309Z 01014G19KT 05/M04 A3022 RMK A01 T00481035  RH  055%=      5-min Rain = 0
KDO1 111310Z 00012G17KT 05/M04 A3022 RMK A01 T00481035  RH  055%=      5-min Rain = 0
KDO1 111311Z 36012G17KT 05/M04 A3022 RMK A01 T00481035  RH  055%=      5-min Rain = 0
KDO1 111312Z 35013KT 05/M04 A3022 RMK A01 T00481036  RH  055%=      5-min Rain = 0
KDO1 111313Z 36013KT 05/M04 A3022 RMK A01 T00471035  RH  055%=      5-min Rain = 0
KDO1 111314Z 35015G20KT 05/M04 A3022 RMK A01 T00471035  RH  055%=      5-min Rain = 0
KDO1 111315Z 36013G18KT 05/M04 A3022 RMK A01 T00471035  RH  055%=      5-min Rain = 0
KDO1 111316Z 35013G20KT 05/M04 A3022 RMK A01 T00471035  RH  055%=      5-min Rain = 0
KDO1 111317Z 36017G22KT 05/M04 A3023 RMK A01 T00471036  RH  055%=      5-min Rain = 0
KDO1 111318Z 35016KT 05/M04 A3023 RMK A01 T00471037  RH  055%=      5-min Rain = 0
KDO1 111319Z 36014KT 05/M04 A3023 RMK A01 T00471037  RH  055%=      5-min Rain = 0
KDO1 111320Z 35013G19KT 05/M04 A3023 RMK A01 T00461037  RH  055%=      5-min Rain = 0
KDO1 111321Z 00018KT 05/M04 A3023 RMK A01 T00471038  RH  054%=      5-min Rain = 0
KDO1 111322Z 35016G23KT 05/M04 A3023 RMK A01 T00461039  RH  054%=      5-min Rain = 0
KDO1 111323Z 35018G23KT 05/M04 A3023 RMK A01 T00461040  RH  054%=      5-min Rain = 0
KDO1 111324Z 00014G19KT 05/M04 A3023 RMK A01 T00461041  RH  053%=      5-min Rain = 0
KDO1 111325Z 00014G19KT 05/M04 A3024 RMK A01 T00451041  RH  053%=      5-min Rain = 0
KDO1 111326Z 35018KT 05/M04 A3024 RMK A01 T00451042  RH  053%=      5-min Rain = 0
KDO1 111327Z 35018G23KT 05/M04 A3024 RMK A01 T00451044  RH  053%=      5-min Rain = 0
KDO1 111328Z 35016G21KT 04/M04 A3024 RMK A01 T00441044  RH  052%=      5-min Rain = 0
KDO1 111329Z 35016G21KT 04/M05 A3024 RMK A01 T00441046  RH  052%=      5-min Rain = 0
KDO1 111330Z 00016G22KT 04/M05 A3024 RMK A01 T00441046  RH  052%=      5-min Rain = 0
KDO1 111331Z 35014KT 04/M05 A3024 RMK A01 T00441047  RH  052%=      5-min Rain = 0
KDO1 111332Z 36020G26KT 04/M05 A3024 RMK A01 T00441047  RH  052%=      5-min Rain = 0
KDO1 111333Z 35020KT 04/M05 A3024 RMK A01 T00441049  RH  051%=      5-min Rain = 0
KDO1 111334Z 35024G29KT 04/M05 A3024 RMK A01 T00441050  RH  051%=      5-min Rain = 0
KDO1 111335Z 00022KT 04/M05 A3024 RMK A01 T00431050  RH  050%=      5-min Rain = 0
KDO1 111336Z 00018G24KT 04/M05 A3024 RMK A01 T00431051  RH  050%=      5-min Rain = 0
KDO1 111337Z 00017KT 04/M05 A3024 RMK A01 T00431051  RH  050%=      5-min Rain = 0
KDO1 111338Z 36014KT 04/M05 A3024 RMK A01 T00431051  RH  051%=      5-min Rain = 0
KDO1 111339Z 00015G20KT 04/M05 A3024 RMK A01 T00421051  RH  051%=      5-min Rain = 0
KDO1 111340Z 00017KT 04/M05 A3024 RMK A01 T00421051  RH  051%=      5-min Rain = 0
KDO1 111341Z 36018KT 04/M05 A3024 RMK A01 T00421051  RH  051%=      5-min Rain = 0
KDO1 111342Z 35016KT 04/M05 A3024 RMK A01 T00421051  RH  051%=      5-min Rain = 0
KDO1 111343Z 36017G26KT 04/M05 A3024 RMK A01 T00421051  RH  051%=      5-min Rain = 0
KDO1 111344Z 00022G27KT 04/M05 A3024 RMK A01 T00421051  RH  051%=      5-min Rain = 0
KDO1 111345Z 35021G27KT 04/M05 A3024 RMK A01 T00411051  RH  051%=      5-min Rain = 0
KDO1 111346Z 36020KT 04/M05 A3024 RMK A01 T00411051  RH  051%=      5-min Rain = 0
KDO1 111347Z 00016G21KT 04/M05 A3024 RMK A01 T00411051  RH  051%=      5-min Rain = 0
KDO1 111348Z 36017G23KT 04/M05 A3024 RMK A01 T00411051  RH  051%=      5-min Rain = 0
KDO1 111349Z 36016G21KT 04/M05 A3025 RMK A01 T00421051  RH  051%=      5-min Rain = 0
KDO1 111350Z 35021G29KT 04/M05 A3025 RMK A01 T00421051  RH  051%=      5-min Rain = 0
KDO1 111351Z 35018KT 04/M05 A3025 RMK A01 T00411051  RH  051%=      5-min Rain = 0
KDO1 111352Z 35020G26KT 04/M05 A3025 RMK A01 T00401051  RH  051%=      5-min Rain = 0
KDO1 111353Z 36020KT 04/M05 A3025 RMK A01 T00401051  RH  051%=      5-min Rain = 0
KDO1 111354Z 35015G22KT 04/M05 A3025 RMK A01 T00391051  RH  052%=      5-min Rain = 0
KDO1 111355Z 36016G22KT 04/M05 A3025 RMK A01 T00391052  RH  052%=      5-min Rain = 0
KDO1 111356Z 36017G23KT 04/M05 A3025 RMK A01 T00381052  RH  052%=      5-min Rain = 0
KDO1 111357Z 36018KT 04/M05 A3025 RMK A01 T00381052  RH  052%=      5-min Rain = 0
KDO1 111358Z 36015KT 04/M05 A3025 RMK A01 T00381052  RH  052%=      5-min Rain = 0
KDO1 111359Z 36015G20KT 04/M05 A3025 RMK A01 T00381052  RH  052%=      5-min Rain = 0
KDO1 111400Z 36013G20KT 04/M05 A3025 RMK A01 T00391052  RH  052%=      5-min Rain = 0
KDO1 111401Z 35016G21KT 04/M05 A3025 RMK A01 T00401051  RH  051%=      5-min Rain = 0
KDO1 111402Z 36016KT 04/M05 A3025 RMK A01 T00401051  RH  051%=      5-min Rain = 0
KDO1 111403Z 35016KT 04/M05 A3025 RMK A01 T00411051  RH  051%=      5-min Rain = 0
KDO1 111404Z 35015KT 04/M05 A3025 RMK A01 T00411051  RH  051%=      5-min Rain = 0
KDO1 111405Z 35016KT 04/M05 A3025 RMK A01 T00421051  RH  051%=      5-min Rain = 0
KDO1 111406Z 36018G23KT 04/M05 A3025 RMK A01 T00431051  RH  051%=      5-min Rain = 0
KDO1 111407Z 35014G21KT 04/M05 A3025 RMK A01 T00431051  RH  050%=      5-min Rain = 0
KDO1 111408Z 34014G21KT 04/M05 A3025 RMK A01 T00441050  RH  051%=      5-min Rain = 0
KDO1 111409Z 35021KT 05/M05 A3025 RMK A01 T00451050  RH  050%=      5-min Rain = 0
KDO1 111410Z 35020G26KT 05/M05 A3025 RMK A01 T00451050  RH  050%=      5-min Rain = 0
KDO1 111411Z 35021G27KT 05/M05 A3025 RMK A01 T00451050  RH  050%=      5-min Rain = 0
KDO1 111412Z 35019G25KT 05/M05 A3025 RMK A01 T00451050  RH  050%=      5-min Rain = 0
KDO1 111413Z 35020KT 05/M05 A3025 RMK A01 T00451050  RH  050%=      5-min Rain = 0
KDO1 111414Z 36022G31KT 05/M05 A3025 RMK A01 T00451050  RH  050%=      5-min Rain = 0
KDO1 111415Z 36026G31KT 05/M05 A3025 RMK A01 T00451051  RH  050%=      5-min Rain = 0
KDO1 111416Z 35023G29KT 05/M05 A3025 RMK A01 T00461051  RH  050%=      5-min Rain = 0
KDO1 111417Z 36025G30KT 05/M05 A3025 RMK A01 T00451051  RH  050%=      5-min Rain = 0
KDO1 111418Z 00021G28KT 05/M05 A3025 RMK A01 T00451051  RH  050%=      5-min Rain = 0
KDO1 111419Z 00020G25KT 05/M05 A3025 RMK A01 T00451051  RH  050%=      5-min Rain = 0
KDO1 111420Z 00021G27KT 05/M05 A3025 RMK A01 T00461051  RH  050%=      5-min Rain = 0
KDO1 111421Z 00020G25KT 05/M05 A3025 RMK A01 T00461051  RH  049%=      5-min Rain = 0
KDO1 111422Z 35019KT 05/M05 A3025 RMK A01 T00461051  RH  049%=      5-min Rain = 0
KDO1 111423Z 36020G27KT 05/M05 A3025 RMK A01 T00471050  RH  049%=      5-min Rain = 0
KDO1 111424Z 00022G28KT 05/M05 A3025 RMK A01 T00481051  RH  049%=      5-min Rain = 0
KDO1 111425Z 00018G24KT 05/M05 A3025 RMK A01 T00481051  RH  049%=      5-min Rain = 0
KDO1 111426Z 00015G20KT 05/M05 A3025 RMK A01 T00481050  RH  049%=      5-min Rain = 0
KDO1 111427Z 36020G25KT 05/M05 A3025 RMK A01 T00491050  RH  049%=      5-min Rain = 0
KDO1 111428Z 36019G25KT 05/M05 A3025 RMK A01 T00471052  RH  049%=      5-min Rain = 0
KDO1 111429Z 35022KT 05/M05 A3025 RMK A01 T00461052  RH  049%=      5-min Rain = 0
KDO1 111430Z 36022G28KT 04/M05 A3025 RMK A01 T00441052  RH  049%=      5-min Rain = 0
KDO1 111431Z 00024KT 04/M05 A3026 RMK A01 T00431053  RH  050%=      5-min Rain = 0
KDO1 111432Z 01025G31KT 04/M05 A3026 RMK A01 T00421053  RH  050%=      5-min Rain = 0
KDO1 111433Z 36023G30KT 04/M05 A3026 RMK A01 T00421053  RH  050%=      5-min Rain = 0
KDO1 111434Z 00021G26KT 04/M05 A3025 RMK A01 T00411053  RH  050%=      5-min Rain = 0
KDO1 111435Z 35021KT 04/M05 A3026 RMK A01 T00421052  RH  050%=      5-min Rain = 0
KDO1 111436Z 01020KT 04/M05 A3026 RMK A01 T00411052  RH  050%=      5-min Rain = 0
KDO1 111437Z 00020KT 04/M05 A3026 RMK A01 T00421052  RH  050%=      5-min Rain = 0
KDO1 111438Z 36021G26KT 04/M05 A3026 RMK A01 T00421052  RH  050%=      5-min Rain = 0
KDO1 111439Z 36017G25KT 04/M05 A3026 RMK A01 T00421052  RH  050%=      5-min Rain = 0
KDO1 111440Z 00021G26KT 04/M05 A3026 RMK A01 T00421052  RH  050%=      5-min Rain = 0
KDO1 111441Z 01019G24KT 04/M05 A3026 RMK A01 T00421052  RH  050%=      5-min Rain = 0
KDO1 111442Z 36019G24KT 04/M05 A3026 RMK A01 T00421052  RH  050%=      5-min Rain = 0
KDO1 111443Z 00013G20KT 04/M05 A3026 RMK A01 T00431051  RH  050%=      5-min Rain = 0
KDO1 111444Z 36023KT 04/M05 A3026 RMK A01 T00441051  RH  050%=      5-min Rain = 0
KDO1 111445Z 35018G25KT 05/M05 A3026 RMK A01 T00451051  RH  050%=      5-min Rain = 0
KDO1 111446Z 00020G27KT 05/M05 A3026 RMK A01 T00451051  RH  050%=      5-min Rain = 0
KDO1 111447Z 00019G27KT 05/M05 A3026 RMK A01 T00451052  RH  049%=      5-min Rain = 0
KDO1 111448Z 00020G26KT 05/M05 A3026 RMK A01 T00451052  RH  049%=      5-min Rain = 0
KDO1 111449Z 00022KT 05/M05 A3026 RMK A01 T00451052  RH  049%=      5-min Rain = 0
KDO1 111450Z 00015G23KT 05/M05 A3026 RMK A01 T00451052  RH  049%=      5-min Rain = 0
KDO1 111451Z 00012KT 05/M05 A3026 RMK A01 T00451051  RH  050%=      5-min Rain = 0
KDO1 111452Z 35017KT 05/M05 A3026 RMK A01 T00461051  RH  049%=      5-min Rain = 0
KDO1 111453Z 00019KT 05/M05 A3026 RMK A01 T00471051  RH  049%=      5-min Rain = 0
KDO1 111454Z 36026KT 05/M05 A3026 RMK A01 T00461052  RH  049%=      5-min Rain = 0
KDO1 111455Z 35022G27KT 05/M05 A3026 RMK A01 T00461052  RH  049%=      5-min Rain = 0
KDO1 111456Z 36022G27KT 05/M05 A3026 RMK A01 T00451052  RH  049%=      5-min Rain = 0
KDO1 111457Z 36021KT 05/M05 A3026 RMK A01 T00461052  RH  049%=      5-min Rain = 0
KDO1 111458Z 00020KT 05/M05 A3026 RMK A01 T00461052  RH  049%=      5-min Rain = 0
KDO1 111459Z 35019KT 05/M05 A3026 RMK A01 T00461052  RH  049%=      5-min Rain = 0
KDO1 111500Z 35022G27KT 05/M05 A3026 RMK A01 T00461052  RH  049%=      5-min Rain = 0
KDO1 111501Z 35020G26KT 05/M05 A3026 RMK A01 T00461053  RH  049%=      5-min Rain = 0
KDO1 111502Z 35020G25KT 05/M05 A3026 RMK A01 T00461052  RH  049%=      5-min Rain = 0
KDO1 111503Z 36020G27KT 05/M05 A3027 RMK A01 T00461052  RH  049%=      5-min Rain = 0
KDO1 111504Z 35019KT 05/M05 A3027 RMK A01 T00461053  RH  049%=      5-min Rain = 0
KDO1 111505Z 36015G20KT 05/M05 A3027 RMK A01 T00461052  RH  049%=      5-min Rain = 0
KDO1 111506Z 00018G24KT 05/M05 A3027 RMK A01 T00461052  RH  049%=      5-min Rain = 0
KDO1 111507Z 01018G24KT 05/M05 A3027 RMK A01 T00471052  RH  049%=      5-min Rain = 0
KDO1 111508Z 35016KT 05/M05 A3027 RMK A01 T00471052  RH  049%=      5-min Rain = 0
KDO1 111509Z 35020KT 05/M05 A3027 RMK A01 T00481051  RH  049%=      5-min Rain = 0
KDO1 111510Z 35021KT 05/M05 A3027 RMK A01 T00481051  RH  048%=      5-min Rain = 0
KDO1 111511Z 35019KT 05/M05 A3027 RMK A01 T00481052  RH  048%=      5-min Rain = 0
KDO1 111512Z 35018G23KT 05/M05 A3027 RMK A01 T00481052  RH  048%=      5-min Rain = 0
KDO1 111513Z 35019G25KT 05/M05 A3027 RMK A01 T00501050  RH  048%=      5-min Rain = 0
KDO1 111514Z 35021G27KT 05/M05 A3027 RMK A01 T00521049  RH  048%=      5-min Rain = 0
KDO1 111515Z 35018G27KT 05/M05 A3027 RMK A01 T00531050  RH  047%=      5-min Rain = 0
KDO1 111516Z 35022G27KT 05/M05 A3027 RMK A01 T00541049  RH  047%=      5-min Rain = 0
KDO1 111517Z 35017KT 05/M05 A3027 RMK A01 T00541050  RH  047%=      5-min Rain = 0
KDO1 111518Z 35019G27KT 05/M05 A3027 RMK A01 T00541049  RH  047%=      5-min Rain = 0
KDO1 111519Z 35018G24KT 05/M05 A3027 RMK A01 T00531050  RH  048%=      5-min Rain = 0
KDO1 111520Z 00022G27KT 05/M05 A3027 RMK A01 T00531050  RH  048%=      5-min Rain = 0
KDO1 111521Z 00018G23KT 05/M05 A3028 RMK A01 T00521050  RH  048%=      5-min Rain = 0
KDO1 111522Z 36022KT 05/M05 A3028 RMK A01 T00531049  RH  048%=      5-min Rain = 0
KDO1 111523Z 36018G25KT 05/M05 A3028 RMK A01 T00531050  RH  047%=      5-min Rain = 0
KDO1 111524Z 00019G26KT 06/M05 A3028 RMK A01 T00551049  RH  047%=      5-min Rain = 0
KDO1 111525Z 01020G25KT 06/M05 A3028 RMK A01 T00561049  RH  047%=      5-min Rain = 0
KDO1 111526Z 00020KT 06/M05 A3028 RMK A01 T00561049  RH  047%=      5-min Rain = 0
KDO1 111527Z 01018G25KT 06/M05 A3028 RMK A01 T00561049  RH  047%=      5-min Rain = 0
KDO1 111528Z 35021KT 06/M05 A3028 RMK A01 T00571049  RH  047%=      5-min Rain = 0
KDO1 111529Z 35020KT 06/M05 A3028 RMK A01 T00571049  RH  046%=      5-min Rain = 0
KDO1 111530Z 35020KT 06/M05 A3028 RMK A01 T00551050  RH  047%=      5-min Rain = 0
KDO1 111531Z 35023G28KT 06/M05 A3027 RMK A01 T00551049  RH  047%=      5-min Rain = 0
KDO1 111532Z 35020G25KT 06/M05 A3027 RMK A01 T00561049  RH  047%=      5-min Rain = 0
KDO1 111533Z 35020G26KT 06/M05 A3027 RMK A01 T00581048  RH  047%=      5-min Rain = 0
KDO1 111534Z 35019G24KT 06/M05 A3027 RMK A01 T00601047  RH  046%=      5-min Rain = 0
KDO1 111535Z 35021G27KT 06/M05 A3027 RMK A01 T00611048  RH  046%=      5-min Rain = 0
KDO1 111536Z 35022KT 06/M05 A3027 RMK A01 T00621048  RH  045%=      5-min Rain = 0
KDO1 111537Z 35019G26KT 06/M05 A3027 RMK A01 T00611048  RH  046%=      5-min Rain = 0
KDO1 111538Z 35017G23KT 06/M05 A3027 RMK A01 T00611048  RH  046%=      5-min Rain = 0
KDO1 111539Z 35019KT 06/M05 A3027 RMK A01 T00631046  RH  046%=      5-min Rain = 0
KDO1 111540Z 36020G27KT 07/M05 A3028 RMK A01 T00651046  RH  045%=      5-min Rain = 0
KDO1 111541Z 36013KT 07/M05 A3027 RMK A01 T00651046  RH  045%=      5-min Rain = 0
KDO1 111542Z 36016G21KT 07/M04 A3027 RMK A01 T00681043  RH  045%=      5-min Rain = 0
KDO1 111543Z 35019G24KT 07/M05 A3027 RMK A01 T00691045  RH  044%=      5-min Rain = 0
KDO1 111544Z 35020G27KT 07/M05 A3028 RMK A01 T00701045  RH  044%=      5-min Rain = 0
KDO1 111545Z 35025KT 07/M05 A3027 RMK A01 T00711047  RH  043%=      5-min Rain = 0
KDO1 111546Z 34023KT 07/M05 A3028 RMK A01 T00691048  RH  043%=      5-min Rain = 0
KDO1 111547Z 34022KT 07/M05 A3027 RMK A01 T00681049  RH  043%=      5-min Rain = 0
KDO1 111548Z 34022G27KT 07/M05 A3028 RMK A01 T00681048  RH  043%=      5-min Rain = 0
KDO1 111549Z 35020G27KT 07/M05 A3028 RMK A01 T00661049  RH  044%=      5-min Rain = 0
KDO1 111550Z 34020KT 07/M05 A3028 RMK A01 T00651048  RH  044%=      5-min Rain = 0
KDO1 111551Z 34020G25KT 07/M05 A3028 RMK A01 T00651048  RH  044%=      5-min Rain = 0
KDO1 111552Z 35020G26KT 07/M05 A3028 RMK A01 T00661047  RH  044%=      5-min Rain = 0
KDO1 111553Z 35019KT 07/M05 A3028 RMK A01 T00661048  RH  044%=      5-min Rain = 0
KDO1 111554Z 35017G22KT 07/M05 A3028 RMK A01 T00671048  RH  044%=      5-min Rain = 0
KDO1 111555Z 35018G24KT 07/M05 A3028 RMK A01 T00701047  RH  043%=      5-min Rain = 0
KDO1 111556Z 35017G23KT 07/M05 A3028 RMK A01 T00711049  RH  042%=      5-min Rain = 0
KDO1 111557Z 35021G26KT 07/M05 A3028 RMK A01 T00711049  RH  042%=      5-min Rain = 0
KDO1 111558Z 00023KT 07/M05 A3028 RMK A01 T00701050  RH  042%=      5-min Rain = 0
KDO1 111559Z 36021G26KT 07/M05 A3028 RMK A01 T00691051  RH  042%=      5-min Rain = 0
KDO1 111600Z 36020KT 07/M05 A3028 RMK A01 T00691051  RH  042%=      5-min Rain = 0
KDO1 111601Z 35019G24KT 07/M05 A3028 RMK A01 T00681051  RH  042%=      5-min Rain = 0
KDO1 111602Z 35021KT 07/M05 A3028 RMK A01 T00681050  RH  043%=      5-min Rain = 0
KDO1 111603Z 01018KT 07/M05 A3028 RMK A01 T00681050  RH  043%=      5-min Rain = 0
KDO1 111604Z 00017G23KT 07/M05 A3028 RMK A01 T00681052  RH  042%=      5-min Rain = 0
KDO1 111605Z 36019G25KT 07/M05 A3028 RMK A01 T00691053  RH  042%=      5-min Rain = 0
KDO1 111606Z 36018G25KT 07/M05 A3028 RMK A01 T00691052  RH  042%=      5-min Rain = 0
KDO1 111607Z 35019KT 07/M05 A3028 RMK A01 T00691052  RH  042%=      5-min Rain = 0
KDO1 111608Z 35016G22KT 07/M05 A3028 RMK A01 T00701052  RH  042%=      5-min Rain = 0
KDO1 111609Z 34018G28KT 07/M05 A3028 RMK A01 T00711051  RH  042%=      5-min Rain = 0
KDO1 111610Z 34022KT 07/M05 A3028 RMK A01 T00711052  RH  041%=      5-min Rain = 0
KDO1 111611Z 34022KT 07/M05 A3028 RMK A01 T00701052  RH  042%=      5-min Rain = 0
KDO1 111612Z 34022KT 07/M05 A3028 RMK A01 T00681052  RH  042%=      5-min Rain = 0
KDO1 111613Z 35024G30KT 07/M05 A3028 RMK A01 T00671052  RH  042%=      5-min Rain = 0
KDO1 111614Z 35018KT 07/M05 A3028 RMK A01 T00661052  RH  042%=      5-min Rain = 0
KDO1 111615Z 35020G25KT 07/M05 A3029 RMK A01 T00661051  RH  043%=      5-min Rain = 0
KDO1 111616Z 35023KT 07/M05 A3029 RMK A01 T00671051  RH  043%=      5-min Rain = 0
KDO1 111617Z 35019G25KT 07/M05 A3029 RMK A01 T00661052  RH  043%=      5-min Rain = 0
KDO1 111618Z 35019KT 06/M05 A3029 RMK A01 T00641051  RH  043%=      5-min Rain = 0
KDO1 111619Z 35021KT 06/M05 A3029 RMK A01 T00641051  RH  043%=      5-min Rain = 0
KDO1 111620Z 35017G23KT 06/M05 A3029 RMK A01 T00641052  RH  043%=      5-min Rain = 0
KDO1 111621Z 35017KT 06/M05 A3029 RMK A01 T00641050  RH  044%=      5-min Rain = 0
KDO1 111622Z 35014KT 07/M05 A3029 RMK A01 T00671050  RH  043%=      5-min Rain = 0
KDO1 111623Z 34019G25KT 07/M05 A3029 RMK A01 T00701049  RH  043%=      5-min Rain = 0
KDO1 111624Z 35017KT 07/M05 A3028 RMK A01 T00711051  RH  041%=      5-min Rain = 0
KDO1 111625Z 36014G19KT 07/M05 A3029 RMK A01 T00731050  RH  041%=      5-min Rain = 0
KDO1 111626Z 36014G22KT 07/M05 A3029 RMK A01 T00741049  RH  041%=      5-min Rain = 0
KDO1 111627Z 01016KT 08/M05 A3029 RMK A01 T00751051  RH  041%=      5-min Rain = 0
KDO1 111628Z 36014G23KT 08/M05 A3029 RMK A01 T00751051  RH  040%=      5-min Rain = 0
KDO1 111629Z 00021KT 08/M05 A3029 RMK A01 T00761051  RH  040%=      5-min Rain = 0
KDO1 111630Z 35019G25KT 08/M05 A3029 RMK A01 T00761052  RH  040%=      5-min Rain = 0
KDO1 111631Z 35017G23KT 08/M05 A3029 RMK A01 T00761052  RH  040%=      5-min Rain = 0
KDO1 111632Z 00017G24KT 08/M05 A3029 RMK A01 T00771052  RH  040%=      5-min Rain = 0
KDO1 111633Z 35017G22KT 08/M05 A3029 RMK A01 T00781053  RH  039%=      5-min Rain = 0
KDO1 111634Z 35018G23KT 08/M05 A3029 RMK A01 T00781052  RH  039%=      5-min Rain = 0
KDO1 111635Z 35019KT 08/M05 A3029 RMK A01 T00781052  RH  039%=      5-min Rain = 0
KDO1 111636Z 35017G23KT 08/M05 A3029 RMK A01 T00791053  RH  039%=      5-min Rain = 0
KDO1 111637Z 35023KT 08/M05 A3029 RMK A01 T00791054  RH  038%=      5-min Rain = 0
KDO1 111638Z 35020G25KT 08/M06 A3029 RMK A01 T00771055  RH  039%=      5-min Rain = 0
KDO1 111639Z 34018KT 08/M06 A3029 RMK A01 T00761055  RH  039%=      5-min Rain = 0
KDO1 111640Z 35019G24KT 08/M05 A3029 RMK A01 T00771054  RH  039%=      5-min Rain = 0
KDO1 111641Z 36021KT 08/M06 A3029 RMK A01 T00781055  RH  038%=      5-min Rain = 0
KDO1 111642Z 35019KT 08/M06 A3029 RMK A01 T00781055  RH  038%=      5-min Rain = 0
KDO1 111643Z 34022KT 08/M06 A3029 RMK A01 T00771056  RH  038%=      5-min Rain = 0
KDO1 111644Z 35021G27KT 08/M06 A3029 RMK A01 T00781059  RH  037%=      5-min Rain = 0
KDO1 111645Z 34021KT 08/M06 A3029 RMK A01 T00771060  RH  037%=      5-min Rain = 0
KDO1 111646Z 35017KT 08/M06 A3029 RMK A01 T00781059  RH  037%=      5-min Rain = 0
KDO1 111647Z 00022G28KT 08/M06 A3029 RMK A01 T00791058  RH  037%=      5-min Rain = 0
KDO1 111648Z 00020G30KT 08/M06 A3029 RMK A01 T00791060  RH  037%=      5-min Rain = 0
KDO1 111649Z 00020G27KT 08/M06 A3029 RMK A01 T00791061  RH  036%=      5-min Rain = 0
KDO1 111650Z 00017G25KT 08/M06 A3029 RMK A01 T00791061  RH  036%=      5-min Rain = 0
KDO1 111651Z 00020G29KT 08/M06 A3029 RMK A01 T00811060  RH  036%=      5-min Rain = 0
KDO1 111652Z 36023KT 08/M06 A3029 RMK A01 T00821060  RH  036%=      5-min Rain = 0
KDO1 111653Z 01021G28KT 08/M06 A3029 RMK A01 T00821060  RH  036%=      5-min Rain = 0
KDO1 111654Z 01018G27KT 08/M06 A3029 RMK A01 T00831060  RH  036%=      5-min Rain = 0
KDO1 111655Z 00020G25KT 09/M06 A3029 RMK A01 T00851058  RH  036%=      5-min Rain = 0
KDO1 111656Z 36020G26KT 09/M06 A3029 RMK A01 T00861058  RH  036%=      5-min Rain = 0
KDO1 111657Z 36019KT 09/M06 A3029 RMK A01 T00861058  RH  036%=      5-min Rain = 0
KDO1 111658Z 35018G24KT 09/M06 A3029 RMK A01 T00881058  RH  035%=      5-min Rain = 0
KDO1 111659Z 36019KT 09/M06 A3029 RMK A01 T00901059  RH  034%=      5-min Rain = 0
KDO1 111700Z 01017G22KT 09/M06 A3029 RMK A01 T00931057  RH  034%=      5-min Rain = 0
KDO1 111701Z 01015KT 10/M06 A3029 RMK A01 T00951058  RH  033%=      5-min Rain = 0
KDO1 111702Z 01018KT 10/M06 A3029 RMK A01 T00971057  RH  033%=      5-min Rain = 0
KDO1 111703Z 01019G25KT 10/M06 A3029 RMK A01 T00961063  RH  032%=      5-min Rain = 0
KDO1 111704Z 01016G21KT 09/M06 A3029 RMK A01 T00931063  RH  033%=      5-min Rain = 0
KDO1 111705Z 01020KT 09/M06 A3029 RMK A01 T00921061  RH  033%=      5-min Rain = 0
KDO1 111706Z 36022G27KT 09/M06 A3029 RMK A01 T00931062  RH  033%=      5-min Rain = 0
KDO1 111707Z 35020G31KT 09/M06 A3029 RMK A01 T00931062  RH  033%=      5-min Rain = 0
KDO1 111708Z 35024G33KT 10/M07 A3029 RMK A01 T00951065  RH  032%=      5-min Rain = 0
KDO1 111709Z 01020G26KT 10/M07 A3029 RMK A01 T00951066  RH  032%=      5-min Rain = 0
KDO1 111710Z 01016G22KT 10/M06 A3029 RMK A01 T00951064  RH  032%=      5-min Rain = 0
KDO1 111711Z 00018G23KT 10/M06 A3029 RMK A01 T00991061  RH  032%=      5-min Rain = 0
KDO1 111712Z 01022KT 10/M07 A303 RMK A01 T01001065  RH  031%=      5-min Rain = 0
KDO1 111713Z 00023G29KT 10/M07 A303 RMK A01 T00961068  RH  031%=      5-min Rain = 0
KDO1 111714Z 36020G28KT 09/M07 A3029 RMK A01 T00941068  RH  031%=      5-min Rain = 0
KDO1 111715Z 36023G30KT 10/M07 A3029 RMK A01 T00951065  RH  032%=      5-min Rain = 0
KDO1 111716Z 36023G28KT 10/M07 A303 RMK A01 T00961066  RH  031%=      5-min Rain = 0
KDO1 111717Z 35021G26KT 09/M07 A3029 RMK A01 T00941066  RH  032%=      5-min Rain = 0
KDO1 111718Z 01018G23KT 09/M07 A3029 RMK A01 T00941065  RH  032%=      5-min Rain = 0
KDO1 111719Z 01015G24KT 10/M07 A3029 RMK A01 T00951065  RH  032%=      5-min Rain = 0
KDO1 111720Z 01017G23KT 10/M06 A3029 RMK A01 T00961063  RH  032%=      5-min Rain = 0
KDO1 111721Z 00019G24KT 10/M06 A303 RMK A01 T00971062  RH  032%=      5-min Rain = 0
KDO1 111722Z 00020KT 10/M06 A303 RMK A01 T00981062  RH  032%=      5-min Rain = 0
KDO1 111723Z 36019G26KT 10/M06 A303 RMK A01 T00981062  RH  032%=      5-min Rain = 0
KDO1 111724Z 00019KT 10/M06 A303 RMK A01 T00991062  RH  032%=      5-min Rain = 0
KDO1 111725Z 36018G23KT 10/M06 A303 RMK A01 T01001061  RH  032%=      5-min Rain = 0
KDO1 111726Z 00022KT 10/M06 A303 RMK A01 T01011062  RH  031%=      5-min Rain = 0
KDO1 111727Z 01021G26KT 10/M07 A303 RMK A01 T00991066  RH  031%=      5-min Rain = 0
KDO1 111728Z 35020KT 10/M07 A303 RMK A01 T00961068  RH  031%=      5-min Rain = 0
KDO1 111729Z 35022G29KT 09/M07 A303 RMK A01 T00941068  RH  031%=      5-min Rain = 0
KDO1 111730Z 36019G24KT 09/M07 A303 RMK A01 T00911067  RH  032%=      5-min Rain = 0
KDO1 111731Z 00021G26KT 09/M06 A303 RMK A01 T00921064  RH  033%=      5-min Rain = 0
KDO1 111732Z 00020G27KT 09/M07 A303 RMK A01 T00921065  RH  033%=      5-min Rain = 0
KDO1 111733Z 01017G22KT 09/M06 A303 RMK A01 T00911064  RH  033%=      5-min Rain = 0
KDO1 111734Z 00019G24KT 09/M06 A303 RMK A01 T00931062  RH  033%=      5-min Rain = 0
KDO1 111735Z 00015G21KT 09/M06 A303 RMK A01 T00931061  RH  033%=      5-min Rain = 0
KDO1 111736Z 35016G23KT 10/M06 A303 RMK A01 T00951060  RH  033%=      5-min Rain = 0
KDO1 111737Z 36020G25KT 10/M06 A303 RMK A01 T00971062  RH  032%=      5-min Rain = 0
KDO1 111738Z 34021KT 10/M06 A303 RMK A01 T00971062  RH  032%=      5-min Rain = 0
KDO1 111739Z 34019G24KT 10/M06 A3029 RMK A01 T00971063  RH  032%=      5-min Rain = 0
KDO1 111740Z 35017G23KT 10/M06 A3029 RMK A01 T00961062  RH  032%=      5-min Rain = 0
KDO1 111741Z 35017G22KT 10/M06 A3029 RMK A01 T00961061  RH  033%=      5-min Rain = 0
KDO1 111742Z 35012KT 10/M06 A3029 RMK A01 T00951061  RH  033%=      5-min Rain = 0
KDO1 111743Z 34018G26KT 10/M06 A3029 RMK A01 T00991058  RH  033%=      5-min Rain = 0
KDO1 111744Z 34017KT 10/M06 A3029 RMK A01 T01001058  RH  032%=      5-min Rain = 0
KDO1 111745Z 35021G28KT 10/M06 A3029 RMK A01 T01001061  RH  032%=      5-min Rain = 0
KDO1 111746Z 01017G23KT 10/M06 A3029 RMK A01 T00991063  RH  031%=      5-min Rain = 0
KDO1 111747Z 36021KT 10/M07 A3029 RMK A01 T01001065  RH  031%=      5-min Rain = 0
KDO1 111748Z 36018KT 10/M07 A303 RMK A01 T00981066  RH  031%=      5-min Rain = 0
KDO1 111749Z 01016G23KT 10/M07 A3029 RMK A01 T00991065  RH  031%=      5-min Rain = 0
KDO1 111750Z 02017G22KT 10/M07 A3029 RMK A01 T00991068  RH  030%=      5-min Rain = 0
KDO1 111751Z 01016G21KT 10/M07 A3029 RMK A01 T00971070  RH  030%=      5-min Rain = 0
KDO1 111752Z 00014G20KT 10/M07 A3029 RMK A01 T00971069  RH  030%=      5-min Rain = 0
KDO1 111753Z 36014G20KT 10/M07 A3029 RMK A01 T00991066  RH  031%=      5-min Rain = 0
KDO1 111754Z 36015KT 10/M07 A3029 RMK A01 T01021066  RH  030%=      5-min Rain = 0
KDO1 111755Z 36013G20KT 10/M07 A3029 RMK A01 T01031067  RH  030%=      5-min Rain = 0
KDO1 111756Z 00015G21KT 11/M07 A3029 RMK A01 T01051065  RH  030%=      5-min Rain = 0
KDO1 111757Z 01017G25KT 11/M07 A3029 RMK A01 T01061068  RH  029%=      5-min Rain = 0
KDO1 111758Z 01014KT 10/M07 A3029 RMK A01 T01041070  RH  029%=      5-min Rain = 0
KDO1 111759Z 36015KT 10/M07 A3029 RMK A01 T01021070  RH  029%=      5-min Rain = 0
KDO1 111800Z 36022KT 10/M07 A3029 RMK A01 T01021070  RH  029%=      5-min Rain = 0
KDO1 111801Z 35020G25KT 10/M07 A3029 RMK A01 T01021070  RH  029%=      5-min Rain = 0
KDO1 111802Z 34020G28KT 10/M07 A3028 RMK A01 T01021071  RH  029%=      5-min Rain = 0
KDO1 111803Z 34021KT 10/M07 A3028 RMK A01 T01001071  RH  029%=      5-min Rain = 0
KDO1 111804Z 35022G27KT 10/M07 A3028 RMK A01 T00991071  RH  029%=      5-min Rain = 0
KDO1 111805Z 00020KT 10/M07 A3028 RMK A01 T00991073  RH  029%=      5-min Rain = 0
KDO1 111806Z 01019G26KT 10/M08 A3028 RMK A01 T01001076  RH  028%=      5-min Rain = 0
KDO1 111807Z 00015G20KT 10/M08 A3028 RMK A01 T01021075  RH  028%=      5-min Rain = 0
KDO1 111808Z 01016G25KT 10/M08 A3028 RMK A01 T01041076  RH  027%=      5-min Rain = 0
KDO1 111809Z 01018G25KT 11/M08 A3028 RMK A01 T01051075  RH  028%=      5-min Rain = 0
KDO1 111810Z 00016G22KT 10/M07 A3028 RMK A01 T01041072  RH  028%=      5-min Rain = 0
KDO1 111811Z 00017KT 11/M07 A3028 RMK A01 T01061069  RH  028%=      5-min Rain = 0
KDO1 111812Z 35014G24KT 11/M07 A3028 RMK A01 T01071068  RH  029%=      5-min Rain = 0
KDO1 111813Z 35017G26KT 11/M07 A3028 RMK A01 T01061067  RH  029%=      5-min Rain = 0
KDO1 111814Z 35014G19KT 11/M07 A3028 RMK A01 T01091065  RH  029%=      5-min Rain = 0
KDO1 111815Z 01018G24KT 11/M07 A3028 RMK A01 T01111068  RH  028%=      5-min Rain = 0
KDO1 111816Z 00020G26KT 11/M07 A3028 RMK A01 T01101073  RH  027%=      5-min Rain = 0
KDO1 111817Z 35018G25KT 11/M07 A3028 RMK A01 T01091072  RH  027%=      5-min Rain = 0
KDO1 111818Z 36016KT 11/M07 A3028 RMK A01 T01071072  RH  028%=      5-min Rain = 0
KDO1 111819Z 36017KT 11/M07 A3028 RMK A01 T01061071  RH  028%=      5-min Rain = 0
KDO1 111820Z 36019KT 11/M07 A3028 RMK A01 T01061072  RH  028%=      5-min Rain = 0
KDO1 111821Z 36020KT 11/M08 A3028 RMK A01 T01061077  RH  027%=      5-min Rain = 0
KDO1 111822Z 36018KT 11/M08 A3028 RMK A01 T01061079  RH  027%=      5-min Rain = 0
KDO1 111823Z 00017KT 11/M08 A3028 RMK A01 T01061076  RH  027%=      5-min Rain = 0
KDO1 111824Z 00013G19KT 11/M08 A3028 RMK A01 T01071076  RH  027%=      5-min Rain = 0
KDO1 111825Z 00015G23KT 11/M08 A3028 RMK A01 T01091075  RH  027%=      5-min Rain = 0
KDO1 111826Z 36019G24KT 11/M08 A3028 RMK A01 T01111081  RH  025%=      5-min Rain = 0
KDO1 111827Z 35017G22KT 11/M08 A3028 RMK A01 T01121082  RH  025%=      5-min Rain = 0
KDO1 111828Z 00016G23KT 11/M08 A3028 RMK A01 T01131080  RH  025%=      5-min Rain = 0
KDO1 111829Z 00018G24KT 11/M09 A3028 RMK A01 T01131085  RH  024%=      5-min Rain = 0
KDO1 111830Z 00016KT 11/M09 A3028 RMK A01 T01121085  RH  024%=      5-min Rain = 0
KDO1 111831Z 01019G27KT 11/M08 A3028 RMK A01 T01141082  RH  024%=      5-min Rain = 0
KDO1 111832Z 35018KT 11/M08 A3028 RMK A01 T01141083  RH  024%=      5-min Rain = 0
KDO1 111833Z 36016G22KT 12/M08 A3027 RMK A01 T01151081  RH  024%=      5-min Rain = 0
KDO1 111834Z 36014G20KT 12/M08 A3027 RMK A01 T01161081  RH  024%=      5-min Rain = 0
KDO1 111835Z 00016KT 12/M08 A3027 RMK A01 T01151083  RH  024%=      5-min Rain = 0
KDO1 111836Z 00018KT 12/M08 A3027 RMK A01 T01151083  RH  024%=      5-min Rain = 0
KDO1 111837Z 01016G24KT 11/M09 A3027 RMK A01 T01141086  RH  024%=      5-min Rain = 0
KDO1 111838Z 00020KT 11/M09 A3027 RMK A01 T01131087  RH  024%=      5-min Rain = 0
KDO1 111839Z 36017G22KT 11/M09 A3027 RMK A01 T01111088  RH  024%=      5-min Rain = 0
KDO1 111840Z 36014G19KT 11/M09 A3027 RMK A01 T01121086  RH  024%=      5-min Rain = 0
KDO1 111841Z 36017G27KT 12/M08 A3027 RMK A01 T01151083  RH  024%=      5-min Rain = 0
KDO1 111842Z 35021KT 12/M09 A3027 RMK A01 T01161092  RH  022%=      5-min Rain = 0
KDO1 111843Z 00018G24KT 12/M09 A3027 RMK A01 T01171090  RH  023%=      5-min Rain = 0
KDO1 111844Z 01017G22KT 12/M09 A3027 RMK A01 T01161092  RH  022%=      5-min Rain = 0
KDO1 111845Z 01017G23KT 12/M09 A3027 RMK A01 T01171092  RH  022%=      5-min Rain = 0
KDO1 111846Z 00020G29KT 12/M09 A3027 RMK A01 T01181090  RH  023%=      5-min Rain = 0
KDO1 111847Z 35018G24KT 12/M09 A3027 RMK A01 T01171087  RH  023%=      5-min Rain = 0
KDO1 111848Z 00019G24KT 12/M09 A3027 RMK A01 T01171088  RH  023%=      5-min Rain = 0
KDO1 111849Z 01016KT 12/M09 A3027 RMK A01 T01161092  RH  022%=      5-min Rain = 0
KDO1 111850Z 01015G20KT 11/M10 A3027 RMK A01 T01141095  RH  022%=      5-min Rain = 0
KDO1 111851Z 01017G25KT 11/M09 A3027 RMK A01 T01141093  RH  023%=      5-min Rain = 0
KDO1 111852Z 02014KT 11/M09 A3027 RMK A01 T01141094  RH  022%=      5-min Rain = 0
KDO1 111853Z 00019G25KT 11/M09 A3027 RMK A01 T01131094  RH  022%=      5-min Rain = 0
KDO1 111854Z 00017KT 11/M09 A3027 RMK A01 T01131094  RH  022%=      5-min Rain = 0
KDO1 111855Z 00022KT 11/M09 A3027 RMK A01 T01131094  RH  022%=      5-min Rain = 0
KDO1 111856Z 00018KT 11/M10 A3027 RMK A01 T01141095  RH  022%=      5-min Rain = 0
KDO1 111857Z 35018G24KT 11/M09 A3027 RMK A01 T01131094  RH  022%=      5-min Rain = 0
KDO1 111858Z 00016G23KT 12/M09 A3027 RMK A01 T01151094  RH  022%=      5-min Rain = 0
KDO1 111859Z 02016G22KT 12/M10 A3027 RMK A01 T01171096  RH  021%=      5-min Rain = 0
KDO1 111900Z 01018KT 12/M10 A3027 RMK A01 T01171096  RH  022%=      5-min Rain = 0
KDO1 111901Z 01018KT 12/M09 A3027 RMK A01 T01151094  RH  022%=      5-min Rain = 0
KDO1 111902Z 01015G20KT 12/M09 A3027 RMK A01 T01161091  RH  023%=      5-min Rain = 0
KDO1 111903Z 36017KT 12/M09 A3027 RMK A01 T01161088  RH  023%=      5-min Rain = 0
KDO1 111904Z 36016KT 12/M09 A3027 RMK A01 T01191086  RH  023%=      5-min Rain = 0
KDO1 111905Z 01016KT 12/M09 A3027 RMK A01 T01221086  RH  023%=      5-min Rain = 0
KDO1 111906Z 35014G20KT 12/M09 A3026 RMK A01 T01221087  RH  022%=      5-min Rain = 0
KDO1 111907Z 35019KT 13/M09 A3026 RMK A01 T01271087  RH  022%=      5-min Rain = 0
KDO1 111908Z 35015G20KT 13/M09 A3026 RMK A01 T01271090  RH  021%=      5-min Rain = 0
KDO1 111909Z 34016G22KT 13/M09 A3026 RMK A01 T01271092  RH  021%=      5-min Rain = 0
KDO1 111910Z 34018G26KT 13/M10 A3026 RMK A01 T01261096  RH  020%=      5-min Rain = 0
KDO1 111911Z 33020G27KT 12/M10 A3026 RMK A01 T01211100  RH  020%=      5-min Rain = 0
KDO1 111912Z 35020G26KT 12/M10 A3026 RMK A01 T01201102  RH  020%=      5-min Rain = 0
KDO1 111913Z 00017KT 12/M10 A3026 RMK A01 T01191104  RH  020%=      5-min Rain = 0
KDO1 111914Z 01015KT 12/M10 A3027 RMK A01 T01201102  RH  020%=      5-min Rain = 0
KDO1 111915Z 00015KT 12/M10 A3027 RMK A01 T01201102  RH  020%=      5-min Rain = 0
KDO1 111916Z 34017G22KT 12/M10 A3026 RMK A01 T01201095  RH  021%=      5-min Rain = 0
KDO1 111917Z 35017KT 12/M09 A3026 RMK A01 T01201093  RH  022%=      5-min Rain = 0
KDO1 111918Z 36018G23KT 12/M10 A3026 RMK A01 T01191097  RH  021%=      5-min Rain = 0
KDO1 111919Z 36020G25KT 12/M10 A3026 RMK A01 T01211099  RH  020%=      5-min Rain = 0
KDO1 111920Z 36014G19KT 12/M10 A3026 RMK A01 T01221100  RH  020%=      5-min Rain = 0
KDO1 111921Z 35017KT 12/M10 A3026 RMK A01 T01221098  RH  021%=      5-min Rain = 0
KDO1 111922Z 35017KT 12/M10 A3026 RMK A01 T01221096  RH  021%=      5-min Rain = 0
KDO1 111923Z 35014KT 12/M10 A3026 RMK A01 T01201095  RH  021%=      5-min Rain = 0
KDO1 111924Z 35015G23KT 12/M10 A3026 RMK A01 T01211095  RH  021%=      5-min Rain = 0
KDO1 111925Z 35022G27KT 12/M10 A3026 RMK A01 T01231099  RH  020%=      5-min Rain = 0
KDO1 111926Z 35019KT 12/M10 A3026 RMK A01 T01201103  RH  020%=      5-min Rain = 0
KDO1 111927Z 35016KT 12/M10 A3026 RMK A01 T01191103  RH  020%=      5-min Rain = 0
KDO1 111928Z 35017KT 12/M10 A3026 RMK A01 T01191104  RH  020%=      5-min Rain = 0
KDO1 111929Z 01014G19KT 12/M10 A3026 RMK A01 T01211104  RH  020%=      5-min Rain = 0
KDO1 111930Z 01015KT 12/M11 A3026 RMK A01 T01231105  RH  019%=      5-min Rain = 0
KDO1 111931Z 34013KT 12/M10 A3026 RMK A01 T01231102  RH  020%=      5-min Rain = 0
KDO1 111932Z 34011G21KT 12/M10 A3026 RMK A01 T01241101  RH  020%=      5-min Rain = 0
KDO1 111933Z 34020G26KT 12/M10 A3026 RMK A01 T01241102  RH  020%=      5-min Rain = 0
KDO1 111934Z 34020KT 12/M10 A3026 RMK A01 T01241104  RH  019%=      5-min Rain = 0
KDO1 111935Z 35015KT 12/M10 A3026 RMK A01 T01201104  RH  020%=      5-min Rain = 0
KDO1 111936Z 36016G23KT 12/M10 A3026 RMK A01 T01201098  RH  021%=      5-min Rain = 0
KDO1 111937Z 36017G22KT 12/M09 A3026 RMK A01 T01241094  RH  021%=      5-min Rain = 0
KDO1 111938Z 35019KT 13/M09 A3026 RMK A01 T01261093  RH  021%=      5-min Rain = 0
KDO1 111939Z 35016G21KT 13/M09 A3026 RMK A01 T01251094  RH  021%=      5-min Rain = 0
KDO1 111940Z 35017G22KT 13/M09 A3026 RMK A01 T01251094  RH  021%=      5-min Rain = 0
KDO1 111941Z 35018G24KT 12/M10 A3026 RMK A01 T01231097  RH  021%=      5-min Rain = 0
KDO1 111942Z 34019KT 12/M10 A3026 RMK A01 T01211098  RH  021%=      5-min Rain = 0
KDO1 111943Z 35014KT 12/M10 A3026 RMK A01 T01201099  RH  021%=      5-min Rain = 0
KDO1 111944Z 35016G21KT 12/M10 A3026 RMK A01 T01201099  RH  021%=      5-min Rain = 0
KDO1 111945Z 02012G18KT 12/M10 A3026 RMK A01 T01221096  RH  021%=      5-min Rain = 0
KDO1 111946Z 02014KT 13/M10 A3026 RMK A01 T01271095  RH  020%=      5-min Rain = 0
KDO1 111947Z 01015G22KT 13/M09 A3026 RMK A01 T01281094  RH  020%=      5-min Rain = 0
KDO1 111948Z 00018KT 13/M09 A3026 RMK A01 T01281093  RH  020%=      5-min Rain = 0
KDO1 111949Z 01016KT 13/M09 A3026 RMK A01 T01261091  RH  021%=      5-min Rain = 0
KDO1 111950Z 00015KT 13/M09 A3025 RMK A01 T01251090  RH  021%=      5-min Rain = 0
KDO1 111951Z 00013G21KT 13/M09 A3025 RMK A01 T01261089  RH  021%=      5-min Rain = 0
KDO1 111952Z 01018G26KT 13/M09 A3025 RMK A01 T01271089  RH  021%=      5-min Rain = 0
KDO1 111953Z 00016G21KT 13/M09 A3025 RMK A01 T01271092  RH  021%=      5-min Rain = 0
KDO1 111954Z 35012KT 13/M09 A3025 RMK A01 T01251090  RH  021%=      5-min Rain = 0
KDO1 111955Z 35021G27KT 13/M09 A3025 RMK A01 T01251088  RH  022%=      5-min Rain = 0
KDO1 111956Z 35017G22KT 13/M09 A3025 RMK A01 T01261086  RH  022%=      5-min Rain = 0
KDO1 111957Z 35018KT 13/M09 A3025 RMK A01 T01281085  RH  022%=      5-min Rain = 0
KDO1 111958Z 34019G24KT 13/M09 A3025 RMK A01 T01291085  RH  022%=      5-min Rain = 0
KDO1 111959Z 34021G27KT 13/M09 A3025 RMK A01 T01261088  RH  022%=      5-min Rain = 0
KDO1 112000Z 34018G23KT 12/M09 A3025 RMK A01 T01241087  RH  022%=      5-min Rain = 0
KDO1 112001Z 35018G23KT 12/M09 A3025 RMK A01 T01241087  RH  022%=      5-min Rain = 0
KDO1 112002Z 33017G23KT 13/M09 A3025 RMK A01 T01251085  RH  022%=      5-min Rain = 0
KDO1 112003Z 35017G23KT 13/M08 A3025 RMK A01 T01261084  RH  022%=      5-min Rain = 0
KDO1 112004Z 35016KT 13/M08 A3026 RMK A01 T01271084  RH  022%=      5-min Rain = 0
KDO1 112005Z 34013G18KT 13/M08 A3026 RMK A01 T01271084  RH  022%=      5-min Rain = 0
KDO1 112006Z 35014G19KT 13/M08 A3026 RMK A01 T01281082  RH  022%=      5-min Rain = 0
KDO1 112007Z 00017G23KT 13/M08 A3026 RMK A01 T01321081  RH  022%=      5-min Rain = 0
KDO1 112008Z 35018KT 13/M08 A3026 RMK A01 T01311083  RH  022%=      5-min Rain = 0
KDO1 112009Z 00015KT 13/M08 A3026 RMK A01 T01301082  RH  022%=      5-min Rain = 0
KDO1 112010Z 02013G21KT 13/M08 A3026 RMK A01 T01291081  RH  022%=      5-min Rain = 0
KDO1 112011Z 01013KT 13/M08 A3026 RMK A01 T01291081  RH  022%=      5-min Rain = 0
KDO1 112012Z 01015KT 13/M08 A3026 RMK A01 T01281080  RH  023%=      5-min Rain = 0
KDO1 112013Z 36016KT 13/M08 A3026 RMK A01 T01281079  RH  023%=      5-min Rain = 0
KDO1 112014Z 01014G23KT 13/M08 A3026 RMK A01 T01281076  RH  023%=      5-min Rain = 0
KDO1 112015Z 01017G22KT 13/M08 A3026 RMK A01 T01301077  RH  023%=      5-min Rain = 0
KDO1 112016Z 00016KT 13/M08 A3026 RMK A01 T01271077  RH  023%=      5-min Rain = 0
KDO1 112017Z 01013KT 13/M08 A3025 RMK A01 T01271076  RH  024%=      5-min Rain = 0
KDO1 112018Z 01012G23KT 13/M07 A3025 RMK A01 T01301073  RH  024%=      5-min Rain = 0
KDO1 112019Z 35018KT 13/M07 A3025 RMK A01 T01341070  RH  024%=      5-min Rain = 0
KDO1 112020Z 01013KT 14/M07 A3026 RMK A01 T01351071  RH  023%=      5-min Rain = 0
KDO1 112021Z 01016G22KT 13/M07 A3026 RMK A01 T01341071  RH  023%=      5-min Rain = 0
KDO1 112022Z 01016KT 13/M07 A3026 RMK A01 T01341073  RH  023%=      5-min Rain = 0
KDO1 112023Z 00009KT 13/M07 A3025 RMK A01 T01301073  RH  024%=      5-min Rain = 0
KDO1 112024Z 00012KT 13/M07 A3025 RMK A01 T01301070  RH  024%=      5-min Rain = 0
KDO1 112025Z 01013KT 13/M07 A3025 RMK A01 T01311072  RH  024%=      5-min Rain = 0
KDO1 112026Z 35012KT 13/M07 A3025 RMK A01 T01321073  RH  023%=      5-min Rain = 0
KDO1 112027Z 33015KT 13/M07 A3025 RMK A01 T01311074  RH  023%=      5-min Rain = 0
KDO1 112028Z 34018G23KT 13/M07 A3025 RMK A01 T01291074  RH  024%=      5-min Rain = 0
KDO1 112029Z 35013KT 13/M08 A3025 RMK A01 T01261076  RH  024%=      5-min Rain = 0
KDO1 112030Z 36014G21KT 13/M07 A3025 RMK A01 T01251074  RH  024%=      5-min Rain = 0
KDO1 112031Z 33014KT 13/M07 A3025 RMK A01 T01261074  RH  024%=      5-min Rain = 0
KDO1 112032Z 34016KT 13/M07 A3025 RMK A01 T01281073  RH  024%=      5-min Rain = 0
KDO1 112033Z 35015KT 13/M07 A3025 RMK A01 T01281074  RH  024%=      5-min Rain = 0
KDO1 112034Z 35015KT 13/M07 A3025 RMK A01 T01281073  RH  024%=      5-min Rain = 0
KDO1 112035Z 35011KT 13/M07 A3025 RMK A01 T01291073  RH  024%=      5-min Rain = 0
KDO1 112036Z 36014G23KT 13/M07 A3025 RMK A01 T01321069  RH  024%=      5-min Rain = 0
KDO1 112037Z 35020G26KT 13/M07 A3025 RMK A01 T01341067  RH  024%=      5-min Rain = 0
KDO1 112038Z 34013KT 14/M06 A3025 RMK A01 T01351063  RH  025%=      5-min Rain = 0
KDO1 112039Z 34015KT 14/M07 A3025 RMK A01 T01371066  RH  024%=      5-min Rain = 0
KDO1 112040Z 34011G16KT 13/M07 A3025 RMK A01 T01341068  RH  024%=      5-min Rain = 0
KDO1 112041Z 33014KT 13/M07 A3025 RMK A01 T01341067  RH  024%=      5-min Rain = 0
KDO1 112042Z 35018G23KT 13/M07 A3025 RMK A01 T01341070  RH  024%=      5-min Rain = 0
KDO1 112043Z 35015KT 13/M07 A3025 RMK A01 T01341069  RH  024%=      5-min Rain = 0
KDO1 112044Z 35012G17KT 14/M07 A3025 RMK A01 T01351068  RH  024%=      5-min Rain = 0
KDO1 112045Z 01015KT 14/M07 A3025 RMK A01 T01371066  RH  024%=      5-min Rain = 0
KDO1 112046Z 01014KT 14/M07 A3025 RMK A01 T01371068  RH  024%=      5-min Rain = 0
KDO1 112047Z 01014KT 13/M07 A3025 RMK A01 T01341070  RH  024%=      5-min Rain = 0
KDO1 112048Z 01014KT 13/M07 A3025 RMK A01 T01311071  RH  024%=      5-min Rain = 0
KDO1 112049Z 00009KT 13/M07 A3025 RMK A01 T01311068  RH  024%=      5-min Rain = 0
KDO1 112050Z 00011KT 13/M07 A3025 RMK A01 T01331068  RH  024%=      5-min Rain = 0
KDO1 112051Z 01011KT 13/M07 A3025 RMK A01 T01341067  RH  024%=      5-min Rain = 0
KDO1 112052Z 36018KT 14/M07 A3025 RMK A01 T01361066  RH  024%=      5-min Rain = 0
KDO1 112053Z 00019G24KT 14/M07 A3025 RMK A01 T01361065  RH  024%=      5-min Rain = 0
KDO1 112054Z 00017KT 14/M07 A3025 RMK A01 T01351065  RH  024%=      5-min Rain = 0
KDO1 112055Z 01010G16KT 13/M06 A3025 RMK A01 T01341063  RH  025%=      5-min Rain = 0
KDO1 112056Z 01011KT 14/M06 A3025 RMK A01 T01371064  RH  024%=      5-min Rain = 0
KDO1 112057Z 36016KT 14/M06 A3025 RMK A01 T01371064  RH  024%=      5-min Rain = 0
KDO1 112058Z 36016KT 14/M06 A3025 RMK A01 T01371063  RH  024%=      5-min Rain = 0
KDO1 112059Z 01015KT 14/M06 A3025 RMK A01 T01351063  RH  025%=      5-min Rain = 0
KDO1 112100Z 01016KT 14/M06 A3025 RMK A01 T01361063  RH  024%=      5-min Rain = 0
KDO1 112101Z 35014KT 14/M06 A3025 RMK A01 T01361064  RH  024%=      5-min Rain = 0
KDO1 112102Z 35017G23KT 14/M06 A3025 RMK A01 T01371062  RH  024%=      5-min Rain = 0
KDO1 112103Z 35015KT 14/M06 A3025 RMK A01 T01381063  RH  024%=      5-min Rain = 0
KDO1 112104Z 35013G19KT 14/M06 A3025 RMK A01 T01361064  RH  024%=      5-min Rain = 0
KDO1 112105Z 00017KT 14/M06 A3025 RMK A01 T01351063  RH  025%=      5-min Rain = 0
KDO1 112106Z 00019KT 14/M06 A3025 RMK A01 T01371063  RH  024%=      5-min Rain = 0
KDO1 112107Z 35020G26KT 14/M06 A3025 RMK A01 T01371064  RH  024%=      5-min Rain = 0
KDO1 112108Z 35013KT 14/M06 A3025 RMK A01 T01371063  RH  024%=      5-min Rain = 0
KDO1 112109Z 35011G16KT 14/M06 A3025 RMK A01 T01361064  RH  024%=      5-min Rain = 0
KDO1 112110Z 36015G22KT 14/M06 A3025 RMK A01 T01391060  RH  025%=      5-min Rain = 0
KDO1 112111Z 00016G23KT 14/M06 A3025 RMK A01 T01421060  RH  024%=      5-min Rain = 0
KDO1 112112Z 01012G17KT 14/M06 A3025 RMK A01 T01421061  RH  024%=      5-min Rain = 0
KDO1 112113Z 01015G20KT 14/M06 A3025 RMK A01 T01421062  RH  024%=      5-min Rain = 0
KDO1 112114Z 00018KT 14/M07 A3025 RMK A01 T01391065  RH  024%=      5-min Rain = 0
KDO1 112115Z 00015KT 14/M06 A3024 RMK A01 T01381063  RH  024%=      5-min Rain = 0
KDO1 112116Z 00016KT 14/M07 A3024 RMK A01 T01361065  RH  024%=      5-min Rain = 0
KDO1 112117Z 35016KT 14/M06 A3024 RMK A01 T01361064  RH  024%=      5-min Rain = 0
KDO1 112118Z 35016KT 14/M06 A3024 RMK A01 T01371062  RH  024%=      5-min Rain = 0
KDO1 112119Z 36019G24KT 14/M06 A3024 RMK A01 T01381062  RH  024%=      5-min Rain = 0
KDO1 112120Z 36017KT 14/M06 A3025 RMK A01 T01381063  RH  024%=      5-min Rain = 0
KDO1 112121Z 35015KT 14/M06 A3024 RMK A01 T01361061  RH  025%=      5-min Rain = 0
KDO1 112122Z 34012KT 14/M06 A3024 RMK A01 T01371062  RH  025%=      5-min Rain = 0
KDO1 112123Z 34012KT 14/M06 A3024 RMK A01 T01361063  RH  025%=      5-min Rain = 0
KDO1 112124Z 35017KT 13/M06 A3024 RMK A01 T01331064  RH  025%=      5-min Rain = 0
KDO1 112125Z 34016G21KT 13/M06 A3024 RMK A01 T01341062  RH  025%=      5-min Rain = 0
KDO1 112126Z 00014G19KT 14/M06 A3024 RMK A01 T01371059  RH  025%=      5-min Rain = 0
KDO1 112127Z 01015G20KT 14/M06 A3025 RMK A01 T01391062  RH  024%=      5-min Rain = 0
KDO1 112128Z 00015KT 14/M06 A3025 RMK A01 T01371064  RH  024%=      5-min Rain = 0
KDO1 112129Z 35016KT 14/M06 A3025 RMK A01 T01351064  RH  025%=      5-min Rain = 0
KDO1 112130Z 36012KT 14/M06 A3024 RMK A01 T01351062  RH  025%=      5-min Rain = 0
KDO1 112131Z 36011KT 14/M06 A3024 RMK A01 T01371062  RH  025%=      5-min Rain = 0
KDO1 112132Z 00011KT 14/M06 A3024 RMK A01 T01361063  RH  025%=      5-min Rain = 0
KDO1 112133Z 01011KT 14/M06 A3024 RMK A01 T01351062  RH  025%=      5-min Rain = 0
KDO1 112134Z 02012KT 14/M06 A3024 RMK A01 T01371061  RH  025%=      5-min Rain = 0
KDO1 112135Z 01012KT 14/M06 A3024 RMK A01 T01381063  RH  024%=      5-min Rain = 0
KDO1 112136Z 01013G18KT 14/M06 A3024 RMK A01 T01391062  RH  024%=      5-min Rain = 0
KDO1 112137Z 01015KT 14/M06 A3024 RMK A01 T01401061  RH  024%=      5-min Rain = 0
KDO1 112138Z 03014KT 14/M06 A3024 RMK A01 T01401061  RH  024%=      5-min Rain = 0
KDO1 112139Z 01014KT 14/M06 A3024 RMK A01 T01391062  RH  024%=      5-min Rain = 0
KDO1 112140Z 35015KT 14/M06 A3024 RMK A01 T01391061  RH  024%=      5-min Rain = 0
KDO1 112141Z 00018KT 14/M06 A3025 RMK A01 T01401060  RH  024%=      5-min Rain = 0
KDO1 112142Z 00016KT 14/M06 A3025 RMK A01 T01371064  RH  024%=      5-min Rain = 0
KDO1 112143Z 36016KT 14/M06 A3025 RMK A01 T01351063  RH  025%=      5-min Rain = 0
KDO1 112144Z 00012KT 14/M06 A3025 RMK A01 T01351062  RH  025%=      5-min Rain = 0
KDO1 112145Z 36011KT 14/M06 A3024 RMK A01 T01351061  RH  025%=      5-min Rain = 0
KDO1 112146Z 35013KT 14/M06 A3024 RMK A01 T01371060  RH  025%=      5-min Rain = 0
KDO1 112147Z 36016G22KT 14/M06 A3024 RMK A01 T01371061  RH  025%=      5-min Rain = 0
KDO1 112148Z 02013G18KT 14/M06 A3024 RMK A01 T01391061  RH  024%=      5-min Rain = 0
KDO1 112149Z 01012G18KT 14/M06 A3024 RMK A01 T01391062  RH  024%=      5-min Rain = 0
KDO1 112150Z 01012G18KT 14/M06 A3024 RMK A01 T01391062  RH  024%=      5-min Rain = 0
KDO1 112151Z 35011KT 14/M06 A3025 RMK A01 T01391063  RH  024%=      5-min Rain = 0
KDO1 112152Z 00012KT 14/M06 A3025 RMK A01 T01391061  RH  024%=      5-min Rain = 0
KDO1 112153Z 00013G18KT 14/M06 A3025 RMK A01 T01391062  RH  024%=      5-min Rain = 0
KDO1 112154Z 35016G21KT 14/M06 A3024 RMK A01 T01371062  RH  025%=      5-min Rain = 0
KDO1 112155Z 35016KT 14/M06 A3024 RMK A01 T01351063  RH  025%=      5-min Rain = 0
KDO1 112156Z 34015KT 13/M06 A3024 RMK A01 T01341062  RH  025%=      5-min Rain = 0
KDO1 112157Z 36018G25KT 13/M06 A3024 RMK A01 T01341061  RH  025%=      5-min Rain = 0
KDO1 112158Z 00016G22KT 14/M06 A3024 RMK A01 T01361059  RH  025%=      5-min Rain = 0
KDO1 112159Z 00014G19KT 14/M06 A3025 RMK A01 T01381061  RH  025%=      5-min Rain = 0
KDO1 112200Z 01015KT 14/M06 A3025 RMK A01 T01361061  RH  025%=      5-min Rain = 0
KDO1 112201Z 01013G18KT 14/M06 A3025 RMK A01 T01351061  RH  025%=      5-min Rain = 0
KDO1 112202Z 01011KT 14/M06 A3025 RMK A01 T01351061  RH  025%=      5-min Rain = 0
KDO1 112203Z 01013KT 14/M06 A3025 RMK A01 T01351060  RH  025%=      5-min Rain = 0
KDO1 112204Z 36015KT 14/M06 A3025 RMK A01 T01361058  RH  025%=      5-min Rain = 0
KDO1 112205Z 01014KT 14/M06 A3025 RMK A01 T01391057  RH  025%=      5-min Rain = 0
KDO1 112206Z 02015KT 14/M06 A3025 RMK A01 T01381058  RH  025%=      5-min Rain = 0
KDO1 112207Z 02015KT 14/M06 A3025 RMK A01 T01381058  RH  025%=      5-min Rain = 0
KDO1 112208Z 02013KT 14/M06 A3025 RMK A01 T01371058  RH  025%=      5-min Rain = 0
KDO1 112209Z 02010KT 14/M06 A3025 RMK A01 T01361058  RH  025%=      5-min Rain = 0
KDO1 112210Z 02011KT 14/M06 A3024 RMK A01 T01351058  RH  026%=      5-min Rain = 0
KDO1 112211Z 36012KT 14/M06 A3025 RMK A01 T01351057  RH  026%=      5-min Rain = 0
KDO1 112212Z 35014KT 14/M06 A3024 RMK A01 T01361056  RH  026%=      5-min Rain = 0
KDO1 112213Z 36014KT 14/M06 A3024 RMK A01 T01371056  RH  026%=      5-min Rain = 0
KDO1 112214Z 35014KT 14/M06 A3024 RMK A01 T01381055  RH  026%=      5-min Rain = 0
KDO1 112215Z 00011KT 14/M06 A3025 RMK A01 T01391055  RH  026%=      5-min Rain = 0
KDO1 112216Z 00017G22KT 14/M06 A3025 RMK A01 T01391055  RH  026%=      5-min Rain = 0
KDO1 112217Z 00016KT 14/M06 A3025 RMK A01 T01371057  RH  026%=      5-min Rain = 0
KDO1 112218Z 02012G18KT 14/M06 A3025 RMK A01 T01361056  RH  026%=      5-min Rain = 0
KDO1 112219Z 02017KT 13/M06 A3025 RMK A01 T01341057  RH  026%=      5-min Rain = 0
KDO1 112220Z 02016KT 13/M06 A3025 RMK A01 T01301058  RH  026%=      5-min Rain = 0
KDO1 112221Z 02015KT 13/M06 A3025 RMK A01 T01281058  RH  027%=      5-min Rain = 0
KDO1 112222Z 02015KT 13/M06 A3025 RMK A01 T01271058  RH  027%=      5-min Rain = 0
KDO1 112223Z 01012KT 13/M06 A3025 RMK A01 T01261057  RH  027%=      5-min Rain = 0
KDO1 112224Z 02013KT 13/M06 A3025 RMK A01 T01271057  RH  027%=      5-min Rain = 0
KDO1 112225Z 03009KT 13/M06 A3025 RMK A01 T01271057  RH  027%=      5-min Rain = 0
KDO1 112226Z 02011KT 13/M06 A3025 RMK A01 T01281056  RH  027%=      5-min Rain = 0
KDO1 112227Z 02013KT 13/M06 A3025 RMK A01 T01291055  RH  027%=      5-min Rain = 0
KDO1 112228Z 03015KT 13/M06 A3025 RMK A01 T01301055  RH  027%=      5-min Rain = 0
KDO1 112229Z 02012KT 13/M06 A3025 RMK A01 T01291056  RH  027%=      5-min Rain = 0
KDO1 112230Z 02015KT 13/M06 A3025 RMK A01 T01301055  RH  027%=      5-min Rain = 0
KDO1 112231Z 02015KT 13/M06 A3025 RMK A01 T01301055  RH  027%=      5-min Rain = 0
KDO1 112232Z 02016KT 13/M06 A3025 RMK A01 T01301055  RH  027%=      5-min Rain = 0
KDO1 112233Z 02014KT 13/M06 A3025 RMK A01 T01311056  RH  027%=      5-min Rain = 0
KDO1 112234Z 02012KT 13/M06 A3025 RMK A01 T01311055  RH  027%=      5-min Rain = 0
KDO1 112235Z 01011KT 13/M05 A3025 RMK A01 T01331054  RH  027%=      5-min Rain = 0
KDO1 112236Z 36009G15KT 13/M05 A3025 RMK A01 T01341054  RH  027%=      5-min Rain = 0
KDO1 112237Z 00014KT 14/M05 A3025 RMK A01 T01371052  RH  027%=      5-min Rain = 0
KDO1 112238Z 00013KT 14/M05 A3025 RMK A01 T01381053  RH  026%=      5-min Rain = 0
KDO1 112239Z 00012KT 14/M05 A3026 RMK A01 T01381052  RH  026%=      5-min Rain = 0
KDO1 112240Z 00010KT 14/M05 A3026 RMK A01 T01381053  RH  026%=      5-min Rain = 0
KDO1 112241Z 00011KT 14/M05 A3025 RMK A01 T01381053  RH  026%=      5-min Rain = 0
KDO1 112242Z 36013G20KT 14/M05 A3025 RMK A01 T01391051  RH  026%=      5-min Rain = 0
KDO1 112243Z 36014KT 14/M05 A3025 RMK A01 T01391053  RH  026%=      5-min Rain = 0
KDO1 112244Z 01013G18KT 14/M05 A3026 RMK A01 T01371052  RH  026%=      5-min Rain = 0
KDO1 112245Z 02014KT 14/M05 A3026 RMK A01 T01361054  RH  026%=      5-min Rain = 0
KDO1 112246Z 01016KT 13/M06 A3026 RMK A01 T01341055  RH  026%=      5-min Rain = 0
KDO1 112247Z 01015G20KT 13/M05 A3026 RMK A01 T01341054  RH  027%=      5-min Rain = 0
KDO1 112248Z 00017KT 14/M05 A3026 RMK A01 T01351052  RH  027%=      5-min Rain = 0
KDO1 112249Z 00012KT 14/M05 A3026 RMK A01 T01351054  RH  027%=      5-min Rain = 0
KDO1 112250Z 36013G18KT 13/M05 A3026 RMK A01 T01341052  RH  027%=      5-min Rain = 0
KDO1 112251Z 01013KT 13/M05 A3026 RMK A01 T01341053  RH  027%=      5-min Rain = 0
KDO1 112252Z 01014G19KT 14/M05 A3026 RMK A01 T01351054  RH  027%=      5-min Rain = 0
KDO1 112253Z 01015KT 14/M05 A3026 RMK A01 T01351053  RH  027%=      5-min Rain = 0
KDO1 112254Z 36012KT 14/M05 A3026 RMK A01 T01361053  RH  027%=      5-min Rain = 0
KDO1 112255Z 01015G20KT 14/M05 A3026 RMK A01 T01351053  RH  027%=      5-min Rain = 0
KDO1 112256Z 36013G18KT 13/M05 A3026 RMK A01 T01341053  RH  027%=      5-min Rain = 0
KDO1 112257Z 00011G17KT 14/M05 A3026 RMK A01 T01351052  RH  027%=      5-min Rain = 0
KDO1 112258Z 36010KT 14/M05 A3026 RMK A01 T01351052  RH  027%=      5-min Rain = 0
KDO1 112259Z 36016KT 14/M05 A3026 RMK A01 T01351051  RH  027%=      5-min Rain = 0
KDO1 112300Z 01014KT 14/M05 A3026 RMK A01 T01361050  RH  027%=      5-min Rain = 0
KDO1 112301Z 03017KT 14/M05 A3026 RMK A01 T01351052  RH  027%=      5-min Rain = 0
KDO1 112302Z 03014KT 13/M05 A3026 RMK A01 T01331053  RH  027%=      5-min Rain = 0
KDO1 112303Z 03014KT 13/M05 A3026 RMK A01 T01321052  RH  027%=      5-min Rain = 0
KDO1 112304Z 02012KT 13/M05 A3026 RMK A01 T01321052  RH  028%=      5-min Rain = 0
KDO1 112305Z 03010KT 13/M05 A3026 RMK A01 T01321052  RH  028%=      5-min Rain = 0
KDO1 112306Z 02013KT 13/M05 A3026 RMK A01 T01321052  RH  027%=      5-min Rain = 0
KDO1 112307Z 02011G16KT 13/M05 A3026 RMK A01 T01311052  RH  028%=      5-min Rain = 0
KDO1 112308Z 01014G19KT 13/M05 A3026 RMK A01 T01311052  RH  028%=      5-min Rain = 0
KDO1 112309Z 02014G19KT 13/M05 A3026 RMK A01 T01301052  RH  028%=      5-min Rain = 0
KDO1 112310Z 03014G19KT 13/M05 A3026 RMK A01 T01291053  RH  028%=      5-min Rain = 0
KDO1 112311Z 02017KT 13/M05 A3026 RMK A01 T01281053  RH  028%=      5-min Rain = 0
KDO1 112312Z 02012KT 13/M05 A3026 RMK A01 T01271053  RH  028%=      5-min Rain = 0
KDO1 112313Z 02012KT 13/M05 A3026 RMK A01 T01271053  RH  028%=      5-min Rain = 0
KDO1 112314Z 00012KT 13/M05 A3026 RMK A01 T01261053  RH  028%=      5-min Rain = 0
KDO1 112315Z 36014KT 13/M05 A3026 RMK A01 T01271052  RH  028%=      5-min Rain = 0
KDO1 112316Z 36017KT 13/M05 A3026 RMK A01 T01261053  RH  028%=      5-min Rain = 0
KDO1 112317Z 01013G18KT 13/M05 A3026 RMK A01 T01261053  RH  028%=      5-min Rain = 0
KDO1 112318Z 00011KT 13/M05 A3027 RMK A01 T01261053  RH  028%=      5-min Rain = 0
KDO1 112319Z 01014KT 13/M05 A3027 RMK A01 T01261053  RH  028%=      5-min Rain = 0
KDO1 112320Z 02012KT 13/M05 A3027 RMK A01 T01261053  RH  028%=      5-min Rain = 0
KDO1 112321Z 02011KT 13/M05 A3027 RMK A01 T01261054  RH  028%=      5-min Rain = 0
KDO1 112322Z 01012KT 13/M05 A3027 RMK A01 T01261053  RH  028%=      5-min Rain = 0
KDO1 112323Z 01011KT 13/M05 A3027 RMK A01 T01251053  RH  028%=      5-min Rain = 0
KDO1 112324Z 01011KT 13/M05 A3027 RMK A01 T01251053  RH  028%=      5-min Rain = 0
KDO1 112325Z 01012KT 13/M05 A3027 RMK A01 T01251053  RH  028%=      5-min Rain = 0
KDO1 112326Z 02010KT 12/M05 A3027 RMK A01 T01241054  RH  029%=      5-min Rain = 0
KDO1 112327Z 03013KT 12/M05 A3027 RMK A01 T01241053  RH  029%=      5-min Rain = 0
KDO1 112328Z 03013KT 13/M05 A3027 RMK A01 T01251052  RH  029%=      5-min Rain = 0
KDO1 112329Z 03012KT 13/M05 A3027 RMK A01 T01251053  RH  029%=      5-min Rain = 0
KDO1 112330Z 03013KT 13/M05 A3027 RMK A01 T01251052  RH  029%=      5-min Rain = 0
KDO1 112331Z 03009KT 13/M05 A3027 RMK A01 T01251052  RH  029%=      5-min Rain = 0
KDO1 112332Z 03009KT 13/M05 A3027 RMK A01 T01261052  RH  029%=      5-min Rain = 0
KDO1 112333Z 01010G16KT 13/M05 A3027 RMK A01 T01281051  RH  028%=      5-min Rain = 0
KDO1 112334Z 02013KT 13/M05 A3027 RMK A01 T01281051  RH  028%=      5-min Rain = 0
KDO1 112335Z 02011KT 13/M05 A3027 RMK A01 T01271052  RH  028%=      5-min Rain = 0
KDO1 112336Z 03012KT 13/M05 A3027 RMK A01 T01261052  RH  028%=      5-min Rain = 0
KDO1 112337Z 04012KT 12/M05 A3027 RMK A01 T01241053  RH  029%=      5-min Rain = 0
KDO1 112338Z 04011KT 12/M05 A3027 RMK A01 T01241052  RH  029%=      5-min Rain = 0
KDO1 112339Z 03011KT 12/M05 A3027 RMK A01 T01241052  RH  029%=      5-min Rain = 0
KDO1 112340Z 02010KT 12/M05 A3027 RMK A01 T01231052  RH  029%=      5-min Rain = 0
KDO1 112341Z 02011KT 12/M05 A3027 RMK A01 T01231052  RH  029%=      5-min Rain = 0
KDO1 112342Z 01012KT 12/M05 A3027 RMK A01 T01231052  RH  029%=      5-min Rain = 0
KDO1 112343Z 01010KT 12/M05 A3027 RMK A01 T01231051  RH  029%=      5-min Rain = 0
KDO1 112344Z 01010KT 12/M05 A3027 RMK A01 T01221052  RH  029%=      5-min Rain = 0
KDO1 112345Z 01007KT 12/M05 A3027 RMK A01 T01211052  RH  029%=      5-min Rain = 0
KDO1 112346Z 03009KT 12/M05 A3027 RMK A01 T01211051  RH  030%=      5-min Rain = 0
KDO1 112347Z 02009KT 12/M05 A3027 RMK A01 T01211051  RH  030%=      5-min Rain = 0
KDO1 112348Z 02011KT 12/M05 A3027 RMK A01 T01221050  RH  030%=      5-min Rain = 0
KDO1 112349Z 03008KT 12/M05 A3027 RMK A01 T01211050  RH  030%=      5-min Rain = 0
KDO1 112350Z 02009KT 12/M05 A3027 RMK A01 T01221050  RH  030%=      5-min Rain = 0
KDO1 112351Z 02009KT 12/M05 A3027 RMK A01 T01221050  RH  030%=      5-min Rain = 0
KDO1 112352Z 03008KT 12/M05 A3027 RMK A01 T01211050  RH  030%=      5-min Rain = 0
KDO1 112353Z 02011KT 12/M05 A3027 RMK A01 T01201050  RH  030%=      5-min Rain = 0
KDO1 112354Z 02010KT 12/M05 A3027 RMK A01 T01211050  RH  030%=      5-min Rain = 0
KDO1 112355Z 02011KT 12/M05 A3027 RMK A01 T01201050  RH  030%=      5-min Rain = 0
KDO1 112356Z 01010KT 12/M05 A3028 RMK A01 T01201050  RH  030%=      5-min Rain = 0
KDO1 112357Z 02013KT 12/M05 A3028 RMK A01 T01201050  RH  030%=      5-min Rain = 0
KDO1 112358Z 02013KT 12/M05 A3028 RMK A01 T01201050  RH  030%=      5-min Rain = 0
KDO1 112359Z 02014KT 12/M05 A3028 RMK A01 T01211050  RH  030%=      5-min Rain = 0
KDO1 120000Z 02012KT 12/M05 A3028 RMK A01 T01211050  RH  030%=      5-min Rain = 0
KDO1 120001Z 03014KT 12/M05 A3028 RMK A01 T01211050  RH  030%=      5-min Rain = 0
KDO1 120002Z 03013KT 12/M05 A3028 RMK A01 T01211050  RH  030%=      5-min Rain = 0
KDO1 120003Z 02012KT 12/M05 A3028 RMK A01 T01211050  RH  030%=      5-min Rain = 0
KDO1 120004Z 03010KT 12/M05 A3028 RMK A01 T01211050  RH  030%=      5-min Rain = 0
KDO1 120005Z 02012KT 12/M05 A3028 RMK A01 T01201051  RH  030%=      5-min Rain = 0
KDO1 120006Z 02012KT 12/M05 A3028 RMK A01 T01201050  RH  030%=      5-min Rain = 0
KDO1 120007Z 02011KT 12/M05 A3028 RMK A01 T01201050  RH  030%=      5-min Rain = 0
KDO1 120008Z 01008KT 12/M05 A3028 RMK A01 T01191050  RH  030%=      5-min Rain = 0
KDO1 120009Z 01009KT 12/M05 A3028 RMK A01 T01191051  RH  030%=      5-min Rain = 0
KDO1 120010Z 01009KT 12/M05 A3028 RMK A01 T01181050  RH  030%=      5-min Rain = 0
KDO1 120011Z 01007KT 12/M05 A3028 RMK A01 T01181050  RH  030%=      5-min Rain = 0
KDO1 120012Z 01009KT 12/M05 A3029 RMK A01 T01181050  RH  031%=      5-min Rain = 0
KDO1 120013Z 01008KT 12/M05 A3029 RMK A01 T01171051  RH  031%=      5-min Rain = 0
KDO1 120014Z 02007G12KT 12/M05 A3029 RMK A01 T01161050  RH  031%=      5-min Rain = 0
KDO1 120015Z 02010KT 12/M05 A3029 RMK A01 T01161050  RH  031%=      5-min Rain = 0
KDO1 120016Z 02008KT 12/M05 A3029 RMK A01 T01161050  RH  031%=      5-min Rain = 0
KDO1 120017Z 01007KT 12/M05 A3029 RMK A01 T01151051  RH  031%=      5-min Rain = 0
KDO1 120018Z 02008KT 11/M05 A3029 RMK A01 T01141050  RH  031%=      5-min Rain = 0
KDO1 120019Z 02008KT 11/M05 A3029 RMK A01 T01141050  RH  031%=      5-min Rain = 0
KDO1 120020Z 01008KT 11/M05 A3029 RMK A01 T01131050  RH  031%=      5-min Rain = 0
KDO1 120021Z 00011KT 11/M05 A3029 RMK A01 T01131050  RH  032%=      5-min Rain = 0
KDO1 120022Z 01010KT 11/M05 A3029 RMK A01 T01121050  RH  032%=      5-min Rain = 0
KDO1 120023Z 02010KT 11/M05 A3029 RMK A01 T01121050  RH  032%=      5-min Rain = 0
KDO1 120024Z 02011KT 11/M05 A3029 RMK A01 T01111050  RH  032%=      5-min Rain = 0
KDO1 120025Z 02010KT 11/M05 A3029 RMK A01 T01111050  RH  032%=      5-min Rain = 0
KDO1 120026Z 03011KT 11/M05 A3029 RMK A01 T01111051  RH  032%=      5-min Rain = 0
KDO1 120027Z 03010KT 11/M05 A3029 RMK A01 T01101051  RH  032%=      5-min Rain = 0
KDO1 120028Z 03009KT 11/M05 A3029 RMK A01 T01101051  RH  032%=      5-min Rain = 0
KDO1 120029Z 02009KT 11/M05 A3029 RMK A01 T01091051  RH  032%=      5-min Rain = 0
KDO1 120030Z 02009KT 11/M05 A3029 RMK A01 T01081051  RH  032%=      5-min Rain = 0
KDO1 120031Z 01009KT 11/M05 A3029 RMK A01 T01081050  RH  032%=      5-min Rain = 0
KDO1 120032Z 02009KT 11/M05 A303 RMK A01 T01081050  RH  033%=      5-min Rain = 0
KDO1 120033Z 02008KT 11/M05 A303 RMK A01 T01071051  RH  033%=      5-min Rain = 0
KDO1 120034Z 02008KT 11/M05 A303 RMK A01 T01071051  RH  033%=      5-min Rain = 0
KDO1 120035Z 02009KT 11/M05 A303 RMK A01 T01071050  RH  033%=      5-min Rain = 0
KDO1 120036Z 02009KT 11/M05 A303 RMK A01 T01071050  RH  033%=      5-min Rain = 0
KDO1 120037Z 02009KT 11/M05 A303 RMK A01 T01061050  RH  033%=      5-min Rain = 0
KDO1 120038Z 01007KT 11/M05 A303 RMK A01 T01061051  RH  033%=      5-min Rain = 0
KDO1 120039Z 02007KT 11/M05 A303 RMK A01 T01051051  RH  033%=      5-min Rain = 0
KDO1 120040Z 02008KT 11/M05 A303 RMK A01 T01051051  RH  033%=      5-min Rain = 0
KDO1 120041Z 02006KT 10/M05 A303 RMK A01 T01041051  RH  033%=      5-min Rain = 0
KDO1 120042Z 02007KT 10/M05 A303 RMK A01 T01041050  RH  033%=      5-min Rain = 0
KDO1 120043Z 02007KT 10/M05 A303 RMK A01 T01041050  RH  033%=      5-min Rain = 0
KDO1 120044Z 02006KT 10/M05 A303 RMK A01 T01031051  RH  033%=      5-min Rain = 0
KDO1 120045Z 01007KT 10/M05 A303 RMK A01 T01031051  RH  034%=      5-min Rain = 0
KDO1 120046Z 02006KT 10/M05 A303 RMK A01 T01021051  RH  034%=      5-min Rain = 0
KDO1 120047Z 02005KT 10/M05 A303 RMK A01 T01021051  RH  034%=      5-min Rain = 0
KDO1 120048Z 02006KT 10/M05 A303 RMK A01 T01011051  RH  034%=      5-min Rain = 0
KDO1 120049Z 02006KT 10/M05 A3031 RMK A01 T01011051  RH  034%=      5-min Rain = 0
KDO1 120050Z 01006KT 10/M05 A3031 RMK A01 T01011051  RH  034%=      5-min Rain = 0
KDO1 120051Z 02006KT 10/M05 A3031 RMK A01 T01001051  RH  034%=      5-min Rain = 0
KDO1 120052Z 02006KT 10/M05 A3031 RMK A01 T01001051  RH  034%=      5-min Rain = 0
KDO1 120053Z 01006KT 10/M05 A3031 RMK A01 T00991051  RH  034%=      5-min Rain = 0
KDO1 120054Z 02006KT 10/M05 A3031 RMK A01 T00991051  RH  034%=      5-min Rain = 0
KDO1 120055Z 01006KT 10/M05 A3031 RMK A01 T00981051  RH  035%=      5-min Rain = 0
KDO1 120056Z 01006KT 10/M05 A3031 RMK A01 T00981051  RH  035%=      5-min Rain = 0
KDO1 120057Z 01006KT 10/M05 A3031 RMK A01 T00981051  RH  035%=      5-min Rain = 0
KDO1 120058Z 01006KT 10/M05 A3031 RMK A01 T00981051  RH  035%=      5-min Rain = 0
KDO1 120059Z 01006KT 10/M05 A3031 RMK A01 T00971051  RH  035%=      5-min Rain = 0
KDO1 120100Z 01007KT 10/M05 A3031 RMK A01 T00971051  RH  035%=      5-min Rain = 0
KDO1 120101Z 02006KT 10/M05 A3031 RMK A01 T00971051  RH  035%=      5-min Rain = 0
KDO1 120102Z 01006KT 10/M05 A3031 RMK A01 T00961051  RH  035%=      5-min Rain = 0
KDO1 120103Z 01006KT 10/M05 A3031 RMK A01 T00961051  RH  035%=      5-min Rain = 0
KDO1 120104Z 01006KT 10/M05 A3031 RMK A01 T00951052  RH  035%=      5-min Rain = 0
KDO1 120105Z 00006KT 09/M05 A3031 RMK A01 T00941052  RH  035%=      5-min Rain = 0
KDO1 120106Z 01006KT 09/M05 A3031 RMK A01 T00931052  RH  035%=      5-min Rain = 0
KDO1 120107Z 01006KT 09/M05 A3031 RMK A01 T00931051  RH  036%=      5-min Rain = 0
KDO1 120108Z 01006KT 09/M05 A3031 RMK A01 T00921052  RH  036%=      5-min Rain = 0
KDO1 120109Z 01006KT 09/M05 A3031 RMK A01 T00911052  RH  036%=      5-min Rain = 0
KDO1 120110Z 00006KT 09/M05 A3031 RMK A01 T00901053  RH  036%=      5-min Rain = 0
KDO1 120111Z 00006KT 09/M05 A3031 RMK A01 T00901052  RH  036%=      5-min Rain = 0
KDO1 120112Z 00006KT 09/M05 A3031 RMK A01 T00891053  RH  036%=      5-min Rain = 0
KDO1 120113Z 00006KT 09/M05 A3031 RMK A01 T00891053  RH  036%=      5-min Rain = 0
KDO1 120114Z 00005KT 09/M05 A3031 RMK A01 T00881053  RH  037%=      5-min Rain = 0
KDO1 120115Z 00005KT 09/M05 A3031 RMK A01 T00871053  RH  037%=      5-min Rain = 0
KDO1 120116Z 00006KT 09/M05 A3032 RMK A01 T00871052  RH  037%=      5-min Rain = 0
KDO1 120117Z 00005KT 09/M05 A3032 RMK A01 T00861053  RH  037%=      5-min Rain = 0
KDO1 120118Z 36005KT 09/M05 A3032 RMK A01 T00861053  RH  037%=      5-min Rain = 0
KDO1 120119Z 00005KT 09/M05 A3032 RMK A01 T00851053  RH  037%=      5-min Rain = 0
KDO1 120120Z 36005KT 08/M05 A3032 RMK A01 T00841053  RH  037%=      5-min Rain = 0
KDO1 120121Z 36005KT 08/M05 A3032 RMK A01 T00831053  RH  038%=      5-min Rain = 0
KDO1 120122Z 36005KT 08/M05 A3032 RMK A01 T00831053  RH  038%=      5-min Rain = 0
KDO1 120123Z 36005KT 08/M05 A3032 RMK A01 T00831053  RH  038%=      5-min Rain = 0
KDO1 120124Z 36005KT 08/M05 A3032 RMK A01 T00831053  RH  038%=      5-min Rain = 0
KDO1 120125Z 35005KT 08/M05 A3032 RMK A01 T00831053  RH  038%=      5-min Rain = 0
KDO1 120126Z 35005KT 08/M05 A3032 RMK A01 T00821054  RH  038%=      5-min Rain = 0
KDO1 120127Z 35005KT 08/M05 A3032 RMK A01 T00811054  RH  038%=      5-min Rain = 0
KDO1 120128Z 35005KT 08/M05 A3032 RMK A01 T00801054  RH  038%=      5-min Rain = 0
KDO1 120129Z 35006KT 08/M06 A3032 RMK A01 T00791055  RH  038%=      5-min Rain = 0
KDO1 120130Z 34006KT 08/M06 A3032 RMK A01 T00771056  RH  038%=      5-min Rain = 0
KDO1 120131Z 35006KT 08/M06 A3032 RMK A01 T00751056  RH  039%=      5-min Rain = 0
KDO1 120132Z 35007KT 07/M06 A3032 RMK A01 T00741056  RH  039%=      5-min Rain = 0
KDO1 120133Z 36006KT 07/M06 A3032 RMK A01 T00741055  RH  039%=      5-min Rain = 0
KDO1 120134Z 35007KT 07/M06 A3032 RMK A01 T00741055  RH  039%=      5-min Rain = 0
KDO1 120135Z 35006KT 07/M06 A3032 RMK A01 T00741055  RH  040%=      5-min Rain = 0
KDO1 120136Z 35006KT 07/M06 A3032 RMK A01 T00731055  RH  040%=      5-min Rain = 0
KDO1 120137Z 35007KT 07/M06 A3032 RMK A01 T00731055  RH  040%=      5-min Rain = 0
KDO1 120138Z 35006KT 07/M06 A3032 RMK A01 T00721055  RH  040%=      5-min Rain = 0
KDO1 120139Z 35006KT 07/M06 A3032 RMK A01 T00711055  RH  040%=      5-min Rain = 0
KDO1 120140Z 35006KT 07/M06 A3032 RMK A01 T00701055  RH  040%=      5-min Rain = 0
KDO1 120141Z 35006KT 07/M06 A3032 RMK A01 T00701055  RH  041%=      5-min Rain = 0
KDO1 120142Z 35007KT 07/M06 A3032 RMK A01 T00711055  RH  041%=      5-min Rain = 0
KDO1 120143Z 36007KT 07/M06 A3032 RMK A01 T00701055  RH  041%=      5-min Rain = 0
KDO1 120144Z 36007KT 07/M05 A3032 RMK A01 T00701054  RH  041%=      5-min Rain = 0
KDO1 120145Z 36006KT 07/M05 A3032 RMK A01 T00701054  RH  041%=      5-min Rain = 0
KDO1 120146Z 36007KT 07/M05 A3032 RMK A01 T00691054  RH  041%=      5-min Rain = 0
KDO1 120147Z 35007KT 07/M05 A3032 RMK A01 T00691054  RH  041%=      5-min Rain = 0
KDO1 120148Z 35007KT 07/M06 A3032 RMK A01 T00691055  RH  041%=      5-min Rain = 0
KDO1 120149Z 35007KT 07/M05 A3032 RMK A01 T00691054  RH  041%=      5-min Rain = 0
KDO1 120150Z 35007KT 07/M06 A3032 RMK A01 T00681055  RH  041%=      5-min Rain = 0
KDO1 120151Z 35007KT 07/M05 A3032 RMK A01 T00691054  RH  041%=      5-min Rain = 0
KDO1 120152Z 35007KT 07/M05 A3032 RMK A01 T00691054  RH  041%=      5-min Rain = 0
KDO1 120153Z 36007KT 07/M05 A3032 RMK A01 T00691054  RH  041%=      5-min Rain = 0
KDO1 120154Z 36007KT 07/M05 A3032 RMK A01 T00691054  RH  041%=      5-min Rain = 0
KDO1 120155Z 35007KT 07/M05 A3032 RMK A01 T00691054  RH  041%=      5-min Rain = 0
KDO1 120156Z 36007KT 07/M05 A3032 RMK A01 T00691054  RH  041%=      5-min Rain = 0
KDO1 120157Z 36007KT 07/M05 A3032 RMK A01 T00701053  RH  041%=      5-min Rain = 0
KDO1 120158Z 36006KT 07/M05 A3032 RMK A01 T00701053  RH  041%=      5-min Rain = 0
KDO1 120159Z 36007KT 07/M05 A3033 RMK A01 T00701053  RH  041%=      5-min Rain = 0
KDO1 120200Z 36006KT 07/M05 A3033 RMK A01 T00701053  RH  041%=      5-min Rain = 0
KDO1 120201Z 35006KT 07/M05 A3033 RMK A01 T00701053  RH  041%=      5-min Rain = 0
KDO1 120202Z 36006KT 07/M05 A3033 RMK A01 T00691054  RH  041%=      5-min Rain = 0
KDO1 120203Z 35006KT 07/M05 A3033 RMK A01 T00691054  RH  041%=      5-min Rain = 0
KDO1 120204Z 35006KT 07/M05 A3033 RMK A01 T00681054  RH  041%=      5-min Rain = 0
KDO1 120205Z 35006KT 07/M05 A3033 RMK A01 T00681053  RH  042%=      5-min Rain = 0
KDO1 120206Z 36007KT 07/M05 A3033 RMK A01 T00681053  RH  042%=      5-min Rain = 0
KDO1 120207Z 36007KT 07/M05 A3033 RMK A01 T00671054  RH  042%=      5-min Rain = 0
KDO1 120208Z 36007KT 07/M05 A3033 RMK A01 T00671053  RH  042%=      5-min Rain = 0
KDO1 120209Z 36007KT 07/M05 A3033 RMK A01 T00671053  RH  042%=      5-min Rain = 0
KDO1 120210Z 36007KT 07/M05 A3033 RMK A01 T00671053  RH  042%=      5-min Rain = 0
KDO1 120211Z 35007KT 07/M05 A3033 RMK A01 T00671053  RH  042%=      5-min Rain = 0
KDO1 120212Z 35006KT 07/M05 A3033 RMK A01 T00671053  RH  042%=      5-min Rain = 0
KDO1 120213Z 35007KT 07/M05 A3033 RMK A01 T00671053  RH  042%=      5-min Rain = 0
KDO1 120214Z 35007KT 07/M05 A3033 RMK A01 T00671053  RH  042%=      5-min Rain = 0
KDO1 120215Z 35007KT 07/M05 A3034 RMK A01 T00661053  RH  042%=      5-min Rain = 0
KDO1 120216Z 35007KT 07/M05 A3034 RMK A01 T00651054  RH  042%=      5-min Rain = 0
KDO1 120217Z 36007KT 07/M05 A3034 RMK A01 T00651054  RH  043%=      5-min Rain = 0
KDO1 120218Z 00007KT 06/M05 A3034 RMK A01 T00641054  RH  043%=      5-min Rain = 0
KDO1 120219Z 36008KT 06/M05 A3034 RMK A01 T00641054  RH  043%=      5-min Rain = 0
KDO1 120220Z 36008KT 06/M05 A3034 RMK A01 T00641053  RH  043%=      5-min Rain = 0
KDO1 120221Z 36008KT 06/M05 A3034 RMK A01 T00641053  RH  043%=      5-min Rain = 0
KDO1 120222Z 00008KT 06/M05 A3034 RMK A01 T00631053  RH  043%=      5-min Rain = 0
KDO1 120223Z 36007KT 06/M05 A3034 RMK A01 T00631053  RH  043%=      5-min Rain = 0
KDO1 120224Z 36007KT 06/M05 A3034 RMK A01 T00631053  RH  043%=      5-min Rain = 0
KDO1 120225Z 36007KT 06/M05 A3034 RMK A01 T00631053  RH  043%=      5-min Rain = 0
KDO1 120226Z 36007KT 06/M05 A3034 RMK A01 T00621053  RH  043%=      5-min Rain = 0
KDO1 120227Z 36006KT 06/M05 A3034 RMK A01 T00621053  RH  043%=      5-min Rain = 0
KDO1 120228Z 00006KT 06/M05 A3034 RMK A01 T00621053  RH  043%=      5-min Rain = 0
KDO1 120229Z 36006KT 06/M05 A3034 RMK A01 T00621053  RH  044%=      5-min Rain = 0
KDO1 120230Z 35006KT 06/M05 A3034 RMK A01 T00621053  RH  044%=      5-min Rain = 0
KDO1 120231Z 36006KT 06/M05 A3034 RMK A01 T00611053  RH  044%=      5-min Rain = 0
KDO1 120232Z 36006KT 06/M05 A3034 RMK A01 T00611053  RH  044%=      5-min Rain = 0
KDO1 120233Z 35006KT 06/M05 A3034 RMK A01 T00601053  RH  044%=      5-min Rain = 0
KDO1 120234Z 35006KT 06/M05 A3034 RMK A01 T00601053  RH  044%=      5-min Rain = 0
KDO1 120235Z 35006KT 06/M05 A3034 RMK A01 T00591053  RH  044%=      5-min Rain = 0
KDO1 120236Z 36006KT 06/M05 A3034 RMK A01 T00591053  RH  044%=      5-min Rain = 0
KDO1 120237Z 35006KT 06/M05 A3034 RMK A01 T00591053  RH  044%=      5-min Rain = 0
KDO1 120238Z 35006KT 06/M05 A3034 RMK A01 T00591053  RH  045%=      5-min Rain = 0
KDO1 120239Z 36006KT 06/M05 A3034 RMK A01 T00581053  RH  045%=      5-min Rain = 0
KDO1 120240Z 36006KT 06/M05 A3034 RMK A01 T00571053  RH  045%=      5-min Rain = 0
KDO1 120241Z 36006KT 06/M05 A3034 RMK A01 T00571053  RH  045%=      5-min Rain = 0
KDO1 120242Z 36006KT 06/M05 A3034 RMK A01 T00561053  RH  045%=      5-min Rain = 0
KDO1 120243Z 36007KT 06/M05 A3034 RMK A01 T00561053  RH  045%=      5-min Rain = 0
KDO1 120244Z 36006KT 06/M05 A3035 RMK A01 T00561053  RH  045%=      5-min Rain = 0
KDO1 120245Z 35007KT 06/M05 A3035 RMK A01 T00551053  RH  045%=      5-min Rain = 0
KDO1 120246Z 36007KT 06/M05 A3035 RMK A01 T00551053  RH  046%=      5-min Rain = 0
KDO1 120247Z 35007KT 05/M05 A3035 RMK A01 T00541053  RH  046%=      5-min Rain = 0
KDO1 120248Z 36007KT 05/M05 A3035 RMK A01 T00541053  RH  046%=      5-min Rain = 0
KDO1 120249Z 35007KT 05/M05 A3035 RMK A01 T00541053  RH  046%=      5-min Rain = 0
KDO1 120250Z 36006KT 05/M05 A3035 RMK A01 T00541053  RH  046%=      5-min Rain = 0
KDO1 120251Z 35006KT 05/M05 A3035 RMK A01 T00541053  RH  046%=      5-min Rain = 0
KDO1 120252Z 35006KT 05/M05 A3035 RMK A01 T00531053  RH  046%=      5-min Rain = 0
KDO1 120253Z 35006KT 05/M05 A3035 RMK A01 T00531053  RH  046%=      5-min Rain = 0
KDO1 120254Z 35006KT 05/M05 A3035 RMK A01 T00531053  RH  046%=      5-min Rain = 0
KDO1 120255Z 35005KT 05/M05 A3035 RMK A01 T00531053  RH  046%=      5-min Rain = 0
KDO1 120256Z 35005KT 05/M05 A3035 RMK A01 T00531053  RH  046%=      5-min Rain = 0
KDO1 120257Z 35005KT 05/M05 A3035 RMK A01 T00531053  RH  046%=      5-min Rain = 0
KDO1 120258Z 34005KT 05/M05 A3035 RMK A01 T00531054  RH  046%=      5-min Rain = 0
KDO1 120259Z 34005KT 05/M05 A3035 RMK A01 T00531054  RH  046%=      5-min Rain = 0
KDO1 120300Z 34005KT 05/M05 A3035 RMK A01 T00521054  RH  046%=      5-min Rain = 0
KDO1 120301Z 34005KT 05/M05 A3035 RMK A01 T00521054  RH  046%=      5-min Rain = 0
KDO1 120302Z 35006KT 05/M05 A3035 RMK A01 T00521054  RH  046%=      5-min Rain = 0
KDO1 120303Z 35006KT 05/M05 A3035 RMK A01 T00511054  RH  046%=      5-min Rain = 0
KDO1 120304Z 35006KT 05/M05 A3035 RMK A01 T00511054  RH  047%=      5-min Rain = 0
KDO1 120305Z 35006KT 05/M05 A3035 RMK A01 T00511054  RH  047%=      5-min Rain = 0
KDO1 120306Z 35006KT 05/M05 A3035 RMK A01 T00511053  RH  047%=      5-min Rain = 0
KDO1 120307Z 34006KT 05/M05 A3036 RMK A01 T00511053  RH  047%=      5-min Rain = 0
KDO1 120308Z 35006KT 05/M05 A3036 RMK A01 T00521053  RH  047%=      5-min Rain = 0
KDO1 120309Z 34006KT 05/M05 A3036 RMK A01 T00511053  RH  047%=      5-min Rain = 0
KDO1 120310Z 34006KT 05/M05 A3036 RMK A01 T00511053  RH  047%=      5-min Rain = 0
KDO1 120311Z 34006KT 05/M05 A3036 RMK A01 T00511053  RH  047%=      5-min Rain = 0
KDO1 120312Z 34006KT 05/M05 A3036 RMK A01 T00511054  RH  047%=      5-min Rain = 0
KDO1 120313Z 34006KT 05/M05 A3036 RMK A01 T00511053  RH  047%=      5-min Rain = 0
KDO1 120314Z 35006KT 05/M05 A3036 RMK A01 T00511053  RH  047%=      5-min Rain = 0
KDO1 120315Z 34006KT 05/M05 A3036 RMK A01 T00511052  RH  047%=      5-min Rain = 0
KDO1 120316Z 35006KT 05/M05 A3036 RMK A01 T00521052  RH  047%=      5-min Rain = 0
KDO1 120317Z 35006KT 05/M05 A3036 RMK A01 T00521052  RH  047%=      5-min Rain = 0
KDO1 120318Z 35006KT 05/M05 A3036 RMK A01 T00521052  RH  047%=      5-min Rain = 0
KDO1 120319Z 35006KT 05/M05 A3036 RMK A01 T00521052  RH  047%=      5-min Rain = 0
KDO1 120320Z 35006KT 05/M05 A3036 RMK A01 T00521052  RH  047%=      5-min Rain = 0
KDO1 120321Z 35006KT 05/M05 A3036 RMK A01 T00521052  RH  047%=      5-min Rain = 0
KDO1 120322Z 35006KT 05/M05 A3036 RMK A01 T00521051  RH  047%=      5-min Rain = 0
KDO1 120323Z 35006KT 05/M05 A3036 RMK A01 T00521051  RH  047%=      5-min Rain = 0
KDO1 120324Z 35006KT 05/M05 A3036 RMK A01 T00521051  RH  047%=      5-min Rain = 0
KDO1 120325Z 34006KT 05/M05 A3036 RMK A01 T00521051  RH  047%=      5-min Rain = 0
KDO1 120326Z 35006KT 05/M05 A3036 RMK A01 T00521051  RH  047%=      5-min Rain = 0
KDO1 120327Z 34006KT 05/M05 A3036 RMK A01 T00521051  RH  047%=      5-min Rain = 0
KDO1 120328Z 34006KT 05/M05 A3036 RMK A01 T00521051  RH  047%=      5-min Rain = 0
KDO1 120329Z 34006KT 05/M05 A3036 RMK A01 T00521051  RH  047%=      5-min Rain = 0
KDO1 120330Z 34006KT 05/M05 A3036 RMK A01 T00521051  RH  047%=      5-min Rain = 0
KDO1 120331Z 34006KT 05/M05 A3036 RMK A01 T00521050  RH  047%=      5-min Rain = 0
KDO1 120332Z 34006KT 05/M05 A3036 RMK A01 T00521050  RH  047%=      5-min Rain = 0
KDO1 120333Z 34006KT 05/M05 A3036 RMK A01 T00521050  RH  048%=      5-min Rain = 0
KDO1 120334Z 34006KT 05/M05 A3037 RMK A01 T00521050  RH  048%=      5-min Rain = 0
KDO1 120335Z 35006KT 05/M05 A3037 RMK A01 T00521050  RH  048%=      5-min Rain = 0
KDO1 120336Z 35006KT 05/M05 A3037 RMK A01 T00521051  RH  048%=      5-min Rain = 0
KDO1 120337Z 35007KT 05/M05 A3037 RMK A01 T00521050  RH  048%=      5-min Rain = 0
KDO1 120338Z 35007KT 05/M05 A3037 RMK A01 T00511050  RH  048%=      5-min Rain = 0
KDO1 120339Z 35007KT 05/M05 A3037 RMK A01 T00511050  RH  048%=      5-min Rain = 0
KDO1 120340Z 36007KT 05/M05 A3037 RMK A01 T00501050  RH  048%=      5-min Rain = 0
KDO1 120341Z 36007KT 05/M05 A3037 RMK A01 T00501050  RH  048%=      5-min Rain = 0
KDO1 120342Z 36007KT 05/M05 A3037 RMK A01 T00491050  RH  048%=      5-min Rain = 0
KDO1 120343Z 36007KT 05/M05 A3037 RMK A01 T00491050  RH  049%=      5-min Rain = 0
KDO1 120344Z 00007KT 05/M05 A3037 RMK A01 T00491050  RH  049%=      5-min Rain = 0
KDO1 120345Z 00007KT 05/M05 A3037 RMK A01 T00481050  RH  049%=      5-min Rain = 0
KDO1 120346Z 36007KT 05/M05 A3037 RMK A01 T00481050  RH  049%=      5-min Rain = 0
KDO1 120347Z 36007KT 05/M05 A3037 RMK A01 T00471051  RH  049%=      5-min Rain = 0
KDO1 120348Z 36007KT 05/M05 A3037 RMK A01 T00471050  RH  049%=      5-min Rain = 0
KDO1 120349Z 36007KT 05/M05 A3037 RMK A01 T00461050  RH  050%=      5-min Rain = 0
KDO1 120350Z 36006KT 05/M05 A3037 RMK A01 T00461050  RH  050%=      5-min Rain = 0
KDO1 120351Z 36006KT 05/M05 A3037 RMK A01 T00461050  RH  050%=      5-min Rain = 0
KDO1 120352Z 35006KT 05/M05 A3037 RMK A01 T00461050  RH  050%=      5-min Rain = 0
KDO1 120353Z 36005KT 05/M05 A3037 RMK A01 T00461050  RH  050%=      5-min Rain = 0
KDO1 120354Z 00005KT 05/M05 A3037 RMK A01 T00461050  RH  050%=      5-min Rain = 0
KDO1 120355Z 00005KT 05/M05 A3037 RMK A01 T00471050  RH  050%=      5-min Rain = 0
KDO1 120356Z 36006KT 05/M05 A3037 RMK A01 T00471049  RH  050%=      5-min Rain = 0
KDO1 120357Z 36006KT 05/M05 A3037 RMK A01 T00471049  RH  050%=      5-min Rain = 0
KDO1 120358Z 36006KT 05/M05 A3037 RMK A01 T00471049  RH  050%=      5-min Rain = 0
KDO1 120359Z 36006KT 05/M05 A3037 RMK A01 T00471049  RH  050%=      5-min Rain = 0
KDO1 120400Z 36006KT 05/M05 A3037 RMK A01 T00471049  RH  050%=      5-min Rain = 0
KDO1 120401Z 00006KT 05/M05 A3037 RMK A01 T00471049  RH  050%=      5-min Rain = 0
KDO1 120402Z 36006KT 05/M05 A3037 RMK A01 T00471049  RH  050%=      5-min Rain = 0
KDO1 120403Z 36006KT 05/M05 A3037 RMK A01 T00471049  RH  050%=      5-min Rain = 0
KDO1 120404Z 36006KT 05/M05 A3037 RMK A01 T00471049  RH  050%=      5-min Rain = 0
KDO1 120405Z 00006KT 05/M05 A3037 RMK A01 T00481048  RH  050%=      5-min Rain = 0
KDO1 120406Z 01007KT 05/M05 A3037 RMK A01 T00471049  RH  050%=      5-min Rain = 0
KDO1 120407Z 00006KT 05/M05 A3037 RMK A01 T00471049  RH  050%=      5-min Rain = 0
KDO1 120408Z 01007KT 05/M05 A3037 RMK A01 T00471049  RH  050%=      5-min Rain = 0
KDO1 120409Z 00006KT 05/M05 A3037 RMK A01 T00471049  RH  050%=      5-min Rain = 0
KDO1 120410Z 01006KT 05/M05 A3037 RMK A01 T00481049  RH  050%=      5-min Rain = 0
KDO1 120411Z 01005KT 05/M05 A3037 RMK A01 T00481049  RH  050%=      5-min Rain = 0
KDO1 120412Z 00006KT 05/M05 A3037 RMK A01 T00481048  RH  050%=      5-min Rain = 0
KDO1 120413Z 01005KT 05/M05 A3037 RMK A01 T00491048  RH  050%=      5-min Rain = 0
KDO1 120414Z 01005KT 05/M05 A3037 RMK A01 T00491048  RH  050%=      5-min Rain = 0
KDO1 120415Z 01006KT 05/M05 A3037 RMK A01 T00491048  RH  050%=      5-min Rain = 0
KDO1 120416Z 01006KT 05/M05 A3037 RMK A01 T00491047  RH  050%=      5-min Rain = 0
KDO1 120417Z 01006KT 05/M05 A3037 RMK A01 T00501047  RH  050%=      5-min Rain = 0
KDO1 120418Z 01005KT 05/M05 A3037 RMK A01 T00511047  RH  049%=      5-min Rain = 0
KDO1 120419Z 01007KT 05/M05 A3037 RMK A01 T00511047  RH  049%=      5-min Rain = 0
KDO1 120420Z 01006KT 05/M05 A3037 RMK A01 T00521046  RH  049%=      5-min Rain = 0
KDO1 120421Z 01006KT 05/M05 A3037 RMK A01 T00531045  RH  049%=      5-min Rain = 0
KDO1 120422Z 01008KT 05/M05 A3037 RMK A01 T00531046  RH  049%=      5-min Rain = 0
KDO1 120423Z 01006KT 06/M04 A3037 RMK A01 T00551044  RH  049%=      5-min Rain = 0
KDO1 120424Z 01007KT 06/M04 A3037 RMK A01 T00561044  RH  048%=      5-min Rain = 0
KDO1 120425Z 01007KT 06/M05 A3037 RMK A01 T00561045  RH  048%=      5-min Rain = 0
KDO1 120426Z 01007KT 06/M05 A3037 RMK A01 T00561045  RH  048%=      5-min Rain = 0
KDO1 120427Z 00007KT 06/M05 A3037 RMK A01 T00561045  RH  048%=      5-min Rain = 0
KDO1 120428Z 00007KT 06/M05 A3037 RMK A01 T00561045  RH  048%=      5-min Rain = 0
KDO1 120429Z 00006KT 06/M05 A3037 RMK A01 T00561045  RH  048%=      5-min Rain = 0
KDO1 120430Z 00007KT 06/M05 A3037 RMK A01 T00551045  RH  049%=      5-min Rain = 0
KDO1 120431Z 00006KT 05/M05 A3037 RMK A01 T00541046  RH  049%=      5-min Rain = 0
KDO1 120432Z 00006KT 05/M05 A3037 RMK A01 T00531046  RH  049%=      5-min Rain = 0
KDO1 120433Z 00006KT 05/M05 A3037 RMK A01 T00521047  RH  049%=      5-min Rain = 0
KDO1 120434Z 00006KT 05/M05 A3037 RMK A01 T00511047  RH  049%=      5-min Rain = 0
KDO1 120435Z 00006KT 05/M05 A3037 RMK A01 T00501046  RH  050%=      5-min Rain = 0
KDO1 120436Z 00006KT 05/M05 A3037 RMK A01 T00501046  RH  050%=      5-min Rain = 0
KDO1 120437Z 01007KT 05/M05 A3037 RMK A01 T00491046  RH  050%=      5-min Rain = 0
KDO1 120438Z 00007KT 05/M05 A3037 RMK A01 T00481047  RH  050%=      5-min Rain = 0
KDO1 120439Z 01007KT 05/M05 A3037 RMK A01 T00491046  RH  050%=      5-min Rain = 0
KDO1 120440Z 00006KT 05/M05 A3037 RMK A01 T00481046  RH  050%=      5-min Rain = 0
KDO1 120441Z 00007KT 05/M05 A3037 RMK A01 T00481046  RH  050%=      5-min Rain = 0
KDO1 120442Z 00007KT 05/M05 A3037 RMK A01 T00481046  RH  050%=      5-min Rain = 0
KDO1 120443Z 00006KT 05/M05 A3037 RMK A01 T00481046  RH  051%=      5-min Rain = 0
KDO1 120444Z 00006KT 05/M05 A3037 RMK A01 T00481046  RH  051%=      5-min Rain = 0
KDO1 120445Z 00006KT 05/M05 A3037 RMK A01 T00471046  RH  051%=      5-min Rain = 0
KDO1 120446Z 00006KT 05/M05 A3037 RMK A01 T00461047  RH  051%=      5-min Rain = 0
KDO1 120447Z 00007KT 05/M05 A3037 RMK A01 T00461046  RH  051%=      5-min Rain = 0
KDO1 120448Z 01007KT 05/M05 A3037 RMK A01 T00461046  RH  051%=      5-min Rain = 0
KDO1 120449Z 00007KT 05/M05 A3037 RMK A01 T00471046  RH  051%=      5-min Rain = 0
KDO1 120450Z 00006KT 05/M05 A3037 RMK A01 T00471045  RH  051%=      5-min Rain = 0
KDO1 120451Z 01007KT 05/M05 A3037 RMK A01 T00471045  RH  051%=      5-min Rain = 0
KDO1 120452Z 01007KT 05/M05 A3037 RMK A01 T00461045  RH  051%=      5-min Rain = 0
KDO1 120453Z 01007KT 05/M05 A3037 RMK A01 T00461045  RH  052%=      5-min Rain = 0
KDO1 120454Z 01008KT 05/M05 A3037 RMK A01 T00461045  RH  052%=      5-min Rain = 0
KDO1 120455Z 01008KT 05/M04 A3037 RMK A01 T00471044  RH  051%=      5-min Rain = 0
KDO1 120456Z 01008KT 05/M04 A3037 RMK A01 T00481044  RH  051%=      5-min Rain = 0
KDO1 120457Z 01008KT 05/M04 A3037 RMK A01 T00491044  RH  051%=      5-min Rain = 0
KDO1 120458Z 01007KT 05/M04 A3037 RMK A01 T00501044  RH  051%=      5-min Rain = 0
KDO1 120459Z 01008KT 05/M04 A3037 RMK A01 T00501044  RH  051%=      5-min Rain = 0

Page generated in 0.0328 seconds.